Data for 01/19/2009

Time Sea-Level Adjusted Pressure Absolute Pressure Temperature Relative Humidity Dew Point Precipitation   
(mb) (inHg) (mb) (inHg) (C) (F) (%) (C) (F) (mm) (in)
00:01 1037 30.62 867 25.6 -8.3 17 78 -11.5 11.3 0
00:02 1037 30.62 867 25.6 -8.2 17.3 77 -11.5 11.3 0
00:03 1037 30.62 867 25.6 -8 17.5 77 -11.4 11.4 0
00:04 1037 30.62 867 25.6 -8 17.6 76 -11.6 11.1 0
00:05 1037 30.62 867 25.6 -8 17.5 76 -11.5 11.2 0
00:06 1037 30.62 867 25.6 -8.1 17.4 76 -11.7 11 0
00:07 1037 30.62 867 25.6 -8.2 17.2 77 -11.6 11.2 0
00:08 1037 30.62 867 25.6 -8.2 17.2 78 -11.4 11.4 0
00:09 1037 30.62 867 25.6 -8.1 17.5 76 -11.7 11 0
00:10 1037 30.62 867 25.6 -8.2 17.3 76 -11.7 10.9 0
00:11 1037 30.62 867 25.6 -8.4 16.8 76 -11.9 10.6 0
00:12 1037 30.62 867 25.6 -8.5 16.6 77 -11.9 10.5 0
00:13 1037 30.62 867 25.6 -8.6 16.4 76 -12.1 10.2 0
00:14 1037 30.62 867 25.6 -8.8 16.2 78 -12 10.4 0
00:15 1037 30.62 867 25.6 -8.8 16.2 77 -12.1 10.1 0
00:16 1037 30.62 867 25.6 -8.8 16.1 76 -12.3 9.9 0
00:17 1037 30.62 867 25.6 -9 15.9 78 -12.2 10.1 0
00:18 1037 30.62 867 25.6 -8.9 16 79 -11.9 10.6 0
00:19 1037 30.62 867 25.6 -8.7 16.3 78 -11.8 10.7 0
00:20 1037 30.62 867 25.6 -8.5 16.7 78 -11.7 10.9 0
00:21 1037 30.62 867 25.6 -8.4 17 77 -11.7 11 0
00:22 1037 30.62 867 25.6 -8.2 17.3 76 -11.6 11.1 0
00:23 1037 30.62 867 25.6 -8.1 17.4 75 -11.9 10.6 0
00:24 1037 30.62 867 25.6 -8.3 17 75 -12 10.4 0
00:25 1037 30.62 867 25.6 -8.5 16.7 76 -12.1 10.2 0
00:26 1037 30.62 867 25.6 -8.6 16.5 77 -12 10.4 0
00:27 1037 30.62 867 25.6 -8.7 16.4 77 -12.1 10.3 0
00:28 1037 30.62 867 25.6 -8.7 16.4 76 -12.2 10.1 0
00:29 1037 30.62 866 25.57 -8.7 16.3 77 -12.1 10.2 0
00:30 1037 30.62 866 25.57 -8.8 16.2 76 -12.2 10 0
00:31 1037 30.62 866 25.57 -8.9 16 77 -12.3 9.9 0
00:32 1037 30.62 866 25.57 -8.9 15.9 76 -12.5 9.6 0
00:33 1037 30.62 866 25.57 -9 15.7 77 -12.3 9.9 0
00:34 1037 30.62 866 25.57 -9 15.8 78 -12.2 10 0
00:35 1037 30.62 866 25.57 -8.9 15.9 78 -12.1 10.2 0
00:36 1037 30.62 866 25.57 -8.8 16.2 77 -12.2 10.1 0
00:37 1037 30.62 866 25.57 -8.7 16.4 77 -11.9 10.5 0
00:38 1037 30.62 866 25.57 -8.5 16.8 77 -11.8 10.7 0
00:39 1037 30.62 866 25.57 -8.3 17.2 75 -11.9 10.6 0
00:40 1037 30.62 866 25.57 -8.3 17.2 75 -12 10.4 0
00:41 1037 30.62 866 25.57 -8.4 16.9 75 -12 10.4 0
00:42 1037 30.62 866 25.57 -8.4 16.8 75 -12.1 10.3 0
00:43 1037 30.62 866 25.57 -8.5 16.7 76 -11.9 10.5 0
00:44 1037 30.62 866 25.57 -8.5 16.6 76 -12.1 10.2 0
00:45 1037 30.62 866 25.57 -8.8 16.2 75 -12.4 9.8 0
00:46 1037 30.62 866 25.57 -8.9 16 79 -12 10.5 0
00:47 1037 30.62 866 25.57 -8.7 16.3 78 -11.9 10.5 0
00:48 1037 30.62 866 25.57 -8.6 16.5 76 -12.1 10.2 0
00:49 1037 30.62 866 25.57 -8.6 16.4 77 -12 10.3 0
00:50 1037 30.62 866 25.57 -8.6 16.5 78 -11.8 10.7 0
00:51 1037 30.62 866 25.57 -8.5 16.7 76 -12 10.5 0
00:52 1037 30.62 866 25.57 -8.5 16.7 77 -11.9 10.6 0
00:53 1037 30.62 866 25.57 -8.6 16.5 76 -12.1 10.3 0
00:54 1037 30.62 866 25.57 -8.6 16.5 76 -12.1 10.3 0
00:55 1037 30.62 866 25.57 -8.6 16.5 76 -12.1 10.3 0
00:56 1037 30.62 866 25.57 -8.6 16.5 76 -12.1 10.3 0
00:57 1037 30.62 866 25.57 -8.6 16.6 76 -12.1 10.3 0
00:58 1037 30.62 866 25.57 -8.3 17 77 -11.8 10.8 0
00:59 1037 30.62 866 25.57 -8.1 17.5 74 -11.9 10.6 0
01:00 1037 30.62 866 25.57 -7.9 17.7 74 -11.8 10.8 0
01:01 1037 30.62 866 25.57 -7.9 17.8 73 -12 10.5 0
01:02 1037 30.62 866 25.57 -8 17.6 74 -11.8 10.8 0
01:03 1037 30.62 866 25.57 -8 17.6 74 -11.8 10.7 0
01:04 1037 30.62 866 25.57 -8 17.6 73 -12.1 10.3 0
01:05 1037 30.62 866 25.57 -8.2 17.3 73 -12.2 10 0
01:06 1037 30.62 866 25.57 -8.4 16.8 73 -12.4 9.7 0
01:07 1037 30.62 866 25.57 -8.7 16.4 74 -12.5 9.4 0
01:08 1037 30.62 866 25.57 -8.9 16 76 -12.3 9.8 0
01:09 1037 30.62 866 25.57 -8.8 16.2 77 -12.2 10.1 0
01:10 1037 30.62 866 25.57 -8.7 16.4 76 -12.2 10 0
01:11 1037 30.62 866 25.57 -8.7 16.4 77 -12.1 10.3 0
01:12 1037 30.62 866 25.57 -8.7 16.4 75 -12.2 10 0
01:13 1037 30.62 866 25.57 -8.7 16.3 78 -12 10.5 0
01:14 1037 30.62 866 25.57 -8.6 16.6 77 -11.9 10.6 0
01:15 1037 30.62 866 25.57 -8.5 16.7 74 -12.3 9.9 0
01:16 1037 30.62 866 25.57 -8.6 16.5 77 -11.9 10.6 0
01:17 1037 30.62 866 25.57 -8.5 16.8 76 -11.9 10.5 0
01:18 1037 30.62 866 25.57 -8.4 16.9 75 -12 10.4 0
01:19 1037 30.62 866 25.57 -8.5 16.7 75 -12.3 9.9 0
01:20 1037 30.62 866 25.57 -8.8 16.2 76 -12.3 9.9 0
01:21 1037 30.62 866 25.57 -8.9 15.9 76 -12.4 9.7 0
01:22 1037 30.62 866 25.57 -9.1 15.7 78 -12.3 9.9 0
01:23 1037 30.62 866 25.57 -9.2 15.5 77 -12.4 9.6 0
01:24 1037 30.62 866 25.57 -9.2 15.4 78 -12.4 9.7 0
01:25 1037 30.62 866 25.57 -9.2 15.4 78 -12.5 9.6 0
01:26 1037 30.62 866 25.57 -9.3 15.3 77 -12.6 9.3 0
01:27 1037 30.62 866 25.57 -9.3 15.2 78 -12.5 9.5 0
01:28 1037 30.62 866 25.57 -9.3 15.3 78 -12.5 9.6 0
01:29 1037 30.62 866 25.57 -9.3 15.4 77 -12.6 9.4 0
01:30 1037 30.62 866 25.57 -9.3 15.4 77 -12.5 9.4 0
01:31 1037 30.62 866 25.57 -9.2 15.4 78 -12.3 9.8 0
01:32 1037 30.62 866 25.57 -9.1 15.6 77 -12.4 9.7 0
01:33 1037 30.62 866 25.57 -9 15.7 77 -12.4 9.7 0
01:34 1037 30.62 866 25.57 -8.9 15.9 77 -12.2 10 0
01:35 1037 30.62 866 25.57 -8.8 16.3 76 -12.2 10 0
01:36 1037 30.62 866 25.57 -8.6 16.5 77 -12 10.4 0
01:37 1037 30.62 866 25.57 -8.5 16.6 75 -12.2 10.1 0
01:38 1037 30.62 866 25.57 -8.5 16.7 75 -12.2 10 0
01:39 1037 30.62 866 25.57 -8.5 16.7 75 -12.2 10 0
01:40 1037 30.62 866 25.57 -8.5 16.7 76 -12 10.4 0
01:41 1037 30.62 866 25.57 -8.2 17.2 76 -11.7 10.9 0
01:42 1037 30.62 866 25.57 -7.7 18.1 75 -11.4 11.4 0
01:43 1037 30.62 866 25.57 -7 19.4 71 -11.3 11.6 0
01:44 1037 30.62 866 25.57 -6.5 20.3 68 -11.5 11.3 0
01:45 1037 30.62 866 25.57 -6.5 20.4 66 -11.9 10.6 0
01:46 1037 30.62 866 25.57 -6.9 19.6 66 -12.3 9.9 0
01:47 1037 30.62 866 25.57 -7.6 18.4 69 -12.4 9.7 0
01:48 1037 30.62 866 25.57 -8.1 17.4 73 -12.2 10.1 0
01:49 1037 30.62 866 25.57 -8.1 17.4 74 -11.9 10.6 0
01:50 1037 30.62 866 25.57 -7.9 17.7 73 -12 10.4 0
01:51 1037 30.62 866 25.57 -8 17.7 73 -12 10.4 0
01:52 1037 30.62 866 25.57 -8 17.6 73 -12 10.3 0
01:53 1037 30.62 866 25.57 -8 17.7 74 -11.9 10.6 0
01:54 1037 30.62 866 25.57 -7.8 17.9 73 -11.8 10.7 0
01:55 1037 30.62 866 25.57 -7.7 18.2 72 -11.9 10.6 0
01:56 1037 30.62 866 25.57 -7.6 18.3 72 -11.9 10.6 0
01:57 1037 30.62 866 25.57 -7.6 18.3 72 -11.9 10.6 0
01:58 1037 30.62 866 25.57 -7.6 18.3 73 -11.7 10.9 0
01:59 1037 30.62 866 25.57 -7.4 18.8 71 -11.8 10.8 0
02:00 1037 30.62 866 25.57 -7.4 18.7 69 -12.1 10.1 0
02:01 1037 30.62 866 25.57 -7.7 18.1 72 -12 10.4 0
02:02 1037 30.62 866 25.57 -7.9 17.8 73 -12 10.5 0
02:03 1037 30.62 867 25.6 -7.9 17.8 72 -12.1 10.1 0
02:04 1037 30.62 867 25.6 -7.9 17.8 72 -12.2 10.1 0
02:05 1037 30.62 867 25.6 -8.1 17.5 72 -12.4 9.8 0
02:06 1037 30.62 867 25.6 -8.4 16.9 74 -12.3 9.9 0
02:07 1037 30.62 867 25.6 -8.6 16.5 74 -12.4 9.7 0
02:08 1037 30.62 867 25.6 -8.7 16.3 76 -12.2 10 0
02:09 1037 30.62 867 25.6 -8.7 16.3 77 -12.1 10.2 0
02:10 1037 30.62 867 25.6 -8.5 16.7 76 -12.1 10.2 0
02:11 1037 30.62 867 25.6 -8.3 17.1 76 -11.8 10.8 0
02:12 1037 30.62 867 25.6 -7.6 18.3 72 -11.9 10.6 0
02:13 1037 30.62 867 25.6 -7.1 19.3 69 -11.8 10.8 0
02:14 1037 30.62 867 25.6 -7 19.5 70 -11.5 11.3 0
02:15 1037 30.62 867 25.6 -6.6 20.1 68 -11.5 11.3 0
02:16 1037 30.62 867 25.6 -6.2 20.8 67 -11.4 11.4 0
02:17 1037 30.62 867 25.6 -5.7 21.7 65 -11.3 11.7 0
02:18 1037 30.62 867 25.6 -5.2 22.6 63 -11.2 11.9 0
02:19 1037 30.62 867 25.6 -4.9 23.2 61 -11.4 11.5 0
02:20 1037 30.62 867 25.6 -4.8 23.4 60 -11.3 11.6 0
02:21 1037 30.62 867 25.6 -4.9 23.2 57 -12.2 10 0
02:22 1037 30.62 867 25.6 -5.6 22 63 -11.5 11.3 0
02:23 1038 30.65 867 25.6 -5.7 21.8 63 -11.6 11.1 0
02:24 1038 30.65 867 25.6 -5.7 21.7 62 -11.8 10.8 0
02:25 1038 30.65 867 25.6 -5.9 21.4 63 -11.9 10.6 0
02:26 1038 30.65 867 25.6 -6 21.2 64 -11.7 11 0
02:27 1038 30.65 867 25.6 -6 21.2 63 -12 10.5 0
02:28 1038 30.65 867 25.6 -6.2 20.9 64 -11.9 10.6 0
02:29 1038 30.65 867 25.6 -6.4 20.5 65 -12 10.4 0
02:30 1037 30.62 867 25.6 -6.5 20.2 67 -11.7 10.9 0
02:31 1037 30.62 867 25.6 -6.5 20.2 67 -11.7 10.9 0
02:32 1037 30.62 867 25.6 -6.6 20.2 65 -12 10.3 0
02:33 1037 30.62 867 25.6 -6.8 19.8 66 -12.2 10.1 0
02:34 1037 30.62 867 25.6 -7 19.3 66 -12.3 9.8 0
02:35 1037 30.62 867 25.6 -7.2 19 65 -12.8 9 0
02:36 1037 30.62 867 25.6 -7.6 18.3 67 -12.7 9.1 0
02:37 1037 30.62 867 25.6 -8 17.6 70 -12.6 9.4 0
02:38 1037 30.62 867 25.6 -8.1 17.5 72 -12.3 9.9 0
02:39 1037 30.62 867 25.6 -7.9 17.7 70 -12.5 9.5 0
02:40 1037 30.62 867 25.6 -8 17.6 71 -12.4 9.8 0
02:41 1037 30.62 867 25.6 -8 17.6 71 -12.5 9.6 0
02:42 1037 30.62 867 25.6 -8.1 17.4 70 -12.6 9.3 0
02:43 1037 30.62 867 25.6 -8.4 17 72 -12.5 9.5 0
02:44 1037 30.62 867 25.6 -8.3 17.1 71 -12.6 9.3 0
02:45 1037 30.62 867 25.6 -8.4 16.9 71 -12.7 9.1 0
02:46 1037 30.62 867 25.6 -8.7 16.4 74 -12.5 9.6 0
02:47 1037 30.62 867 25.6 -8.6 16.5 72 -12.7 9.1 0
02:48 1037 30.62 867 25.6 -8.7 16.4 74 -12.6 9.4 0
02:49 1037 30.62 867 25.6 -8.4 16.8 74 -12.3 9.9 0
02:50 1037 30.62 867 25.6 -8.2 17.2 72 -12.4 9.6 0
02:51 1037 30.62 867 25.6 -8.3 17.2 72 -12.4 9.6 0
02:52 1037 30.62 867 25.6 -8.1 17.3 74 -12 10.4 0
02:53 1037 30.62 867 25.6 -7.9 17.7 69 -12.7 9.2 0
02:54 1037 30.62 867 25.6 -8.2 17.3 71 -12.6 9.4 0
02:55 1037 30.62 867 25.6 -8.3 17.1 76 -11.8 10.8 0
02:56 1037 30.62 867 25.6 -7.7 18.2 71 -12 10.4 0
02:57 1037 30.62 867 25.6 -7.7 18.2 66 -13 8.6 0
02:58 1037 30.62 867 25.6 -8.3 17 70 -12.8 8.9 0
02:59 1037 30.62 867 25.6 -8.6 16.5 70 -13.1 8.4 0
03:00 1037 30.62 867 25.6 -8.9 15.9 71 -13.3 8.1 0
03:01 1037 30.62 867 25.6 -9.3 15.3 72 -13.4 7.9 0
03:02 1037 30.62 867 25.6 -9.4 15 73 -13.5 7.8 0
03:03 1037 30.62 866 25.57 -9.6 14.8 73 -13.5 7.8 0
03:04 1037 30.62 866 25.57 -9.7 14.6 73 -13.6 7.5 0
03:05 1037 30.62 866 25.57 -9.9 14.2 74 -13.7 7.3 0
03:06 1037 30.62 866 25.57 -10.1 13.9 75 -13.7 7.4 0
03:07 1037 30.62 866 25.57 -10.2 13.7 77 -13.5 7.7 0
03:08 1037 30.62 867 25.6 -9.9 14.2 78 -13.1 8.4 0
03:09 1037 30.62 866 25.57 -9.3 15.2 76 -12.8 9 0
03:10 1037 30.62 866 25.57 -8.5 16.7 76 -12 10.5 0
03:11 1037 30.62 866 25.57 -7.3 18.9 69 -12 10.4 0
03:12 1037 30.62 866 25.57 -6.6 20.1 65 -12.2 10.1 0
03:13 1037 30.62 866 25.57 -6.6 20.1 64 -12.4 9.8 0
03:14 1037 30.62 866 25.57 -6.9 19.5 65 -12.5 9.5 0
03:15 1037 30.62 866 25.57 -7.1 19.2 68 -12.2 10.1 0
03:16 1037 30.62 866 25.57 -6.8 19.7 67 -11.9 10.6 0
03:17 1037 30.62 867 25.6 -6.4 20.5 65 -12 10.4 0
03:18 1037 30.62 867 25.6 -6.4 20.5 60 -12.9 8.8 0
03:19 1037 30.62 866 25.57 -7.1 19.3 64 -12.8 9 0
03:20 1037 30.62 866 25.57 -7.5 18.6 68 -12.4 9.7 0
03:21 1037 30.62 866 25.57 -7.6 18.4 70 -12.1 10.2 0
03:22 1037 30.62 866 25.57 -7.5 18.5 70 -12.2 10.1 0
03:23 1037 30.62 866 25.57 -7.1 19.2 71 -11.5 11.3 0
03:24 1037 30.62 866 25.57 -6.2 20.9 63 -12.1 10.3 0
03:25 1037 30.62 866 25.57 -6.5 20.3 63 -12.4 9.7 0
03:26 1037 30.62 866 25.57 -7.1 19.3 62 -13.1 8.5 0
03:27 1037 30.62 866 25.57 -7.9 17.8 65 -13.3 8.1 0
03:28 1037 30.62 866 25.57 -8.5 16.7 70 -13 8.7 0
03:29 1037 30.62 866 25.57 -8.7 16.4 71 -13 8.6 0
03:30 1037 30.62 866 25.57 -8.7 16.3 72 -13 8.6 0
03:31 1037 30.62 867 25.6 -8.8 16.2 73 -12.8 8.9 0
03:32 1037 30.62 867 25.6 -8.8 16.3 71 -13 8.5 0
03:33 1037 30.62 867 25.6 -8.8 16.3 72 -12.9 8.8 0
03:34 1037 30.62 867 25.6 -8.7 16.4 73 -12.7 9.1 0
03:35 1037 30.62 867 25.6 -8.5 16.7 71 -12.9 8.8 0
03:36 1037 30.62 867 25.6 -8.6 16.5 70 -13.1 8.3 0
03:37 1037 30.62 867 25.6 -8.9 16 70 -13.4 7.9 0
03:38 1037 30.62 867 25.6 -9.2 15.4 70 -13.7 7.3 0
03:39 1037 30.62 867 25.6 -9.4 15.1 71 -13.7 7.4 0
03:40 1037 30.62 867 25.6 -9.7 14.6 73 -13.6 7.6 0
03:41 1037 30.62 867 25.6 -9.9 14.1 74 -13.7 7.4 0
03:42 1037 30.62 867 25.6 -10.1 13.8 76 -13.5 7.7 0
03:43 1037 30.62 867 25.6 -10.2 13.6 79 -13.3 8.1 0
03:44 1037 30.62 867 25.6 -10 14 78 -13.1 8.4 0
03:45 1037 30.62 867 25.6 -9.7 14.5 78 -12.9 8.7 0
03:46 1037 30.62 867 25.6 -9.3 15.2 75 -12.9 8.8 0
03:47 1037 30.62 867 25.6 -9.1 15.6 73 -13.2 8.3 0
03:48 1037 30.62 867 25.6 -9.2 15.5 74 -13 8.5 0
03:49 1037 30.62 867 25.6 -9.2 15.4 73 -13.1 8.4 0
03:50 1037 30.62 866 25.57 -9.3 15.2 73 -13.3 8.1 0
03:51 1037 30.62 867 25.6 -9.6 14.8 75 -13.1 8.4 0
03:52 1037 30.62 867 25.6 -9.6 14.8 74 -13.4 7.9 0
03:53 1037 30.62 867 25.6 -9.7 14.5 74 -13.4 7.8 0
03:54 1037 30.62 867 25.6 -9.9 14.1 75 -13.5 7.7 0
03:55 1037 30.62 867 25.6 -10.1 13.9 75 -13.6 7.5 0
03:56 1037 30.62 867 25.6 -10.2 13.7 77 -13.5 7.8 0
03:57 1037 30.62 867 25.6 -10.3 13.5 77 -13.5 7.6 0
03:58 1037 30.62 867 25.6 -10.3 13.4 78 -13.4 7.9 0
03:59 1037 30.62 867 25.6 -10.3 13.5 78 -13.4 7.8 0
04:00 1037 30.62 866 25.57 -10.2 13.6 78 -13.4 7.9 0
04:01 1037 30.62 866 25.57 -10.2 13.6 78 -13.4 7.9 0
04:02 1037 30.62 866 25.57 -10.2 13.7 79 -13.2 8.2 0
04:03 1037 30.62 866 25.57 -10.1 13.8 80 -13 8.7 0
04:04 1037 30.62 866 25.57 -9.8 14.3 78 -13 8.6 0
04:05 1037 30.62 866 25.57 -9.6 14.7 77 -12.9 8.7 0
04:06 1037 30.62 866 25.57 -9.5 14.9 76 -13 8.6 0
04:07 1037 30.62 866 25.57 -9.5 14.9 77 -12.9 8.9 0
04:08 1037 30.62 866 25.57 -9.5 15 77 -12.8 8.9 0
04:09 1037 30.62 866 25.57 -9.3 15.3 75 -12.9 8.7 0
04:10 1037 30.62 866 25.57 -9.1 15.6 76 -12.6 9.4 0
04:11 1037 30.62 866 25.57 -8.8 16.2 75 -12.4 9.6 0
04:12 1037 30.62 866 25.57 -8.5 16.7 70 -13 8.6 0
04:13 1037 30.62 866 25.57 -8.8 16.2 71 -13.2 8.3 0
04:14 1037 30.62 866 25.57 -9.1 15.6 72 -13.3 8.1 0
04:15 1037 30.62 866 25.57 -9.4 15.1 75 -13 8.5 0
04:16 1037 30.62 866 25.57 -9.4 15 75 -13 8.5 0
04:17 1037 30.62 866 25.57 -9.5 14.8 74 -13.3 8 0
04:18 1037 30.62 866 25.57 -9.6 14.7 76 -13 8.5 0
04:19 1037 30.62 866 25.57 -9.6 14.8 73 -13.5 7.7 0
04:20 1037 30.62 866 25.57 -9.8 14.3 77 -13.2 8.3 0
04:21 1037 30.62 866 25.57 -9.9 14.2 78 -13.1 8.5 0
04:22 1037 30.62 866 25.57 -9.9 14.3 76 -13.3 8 0
04:23 1037 30.62 866 25.57 -10 14.1 77 -13.2 8.3 0
04:24 1037 30.62 866 25.57 -10 14.1 80 -12.8 8.9 0
04:25 1037 30.62 866 25.57 -9.9 14.2 76 -13.4 7.9 0
04:26 1037 30.62 866 25.57 -9.9 14.1 75 -13.5 7.6 0
04:27 1037 30.62 866 25.57 -10.1 13.9 76 -13.6 7.5 0
04:28 1037 30.62 866 25.57 -10.2 13.6 76 -13.7 7.4 0
04:29 1037 30.62 866 25.57 -10.5 13.2 77 -13.8 7.2 0
04:30 1037 30.62 866 25.57 -10.6 12.9 78 -13.7 7.3 0
04:31 1037 30.62 866 25.57 -10.7 12.8 80 -13.5 7.8 0
04:32 1037 30.62 866 25.57 -10.6 13 80 -13.4 7.9 0
04:33 1037 30.62 866 25.57 -10.4 13.2 80 -13.3 8.1 0
04:34 1037 30.62 866 25.57 -10.3 13.4 79 -13.3 8 0
04:35 1037 30.62 866 25.57 -10.3 13.5 78 -13.4 7.8 0
04:36 1037 30.62 866 25.57 -10.4 13.4 78 -13.4 7.8 0
04:37 1037 30.62 866 25.57 -10.4 13.2 79 -13.4 7.8 0
04:38 1037 30.62 866 25.57 -10.5 13.2 78 -13.6 7.5 0
04:39 1037 30.62 866 25.57 -10.4 13.2 79 -13.4 8 0
04:40 1037 30.62 866 25.57 -10.4 13.4 80 -13.2 8.3 0
04:41 1037 30.62 866 25.57 -9.9 14.1 78 -13.1 8.4 0
04:42 1037 30.62 866 25.57 -9.6 14.6 76 -13.2 8.3 0
04:43 1037 30.62 866 25.57 -9.5 14.9 76 -13.1 8.5 0
04:44 1037 30.62 866 25.57 -9.5 14.9 75 -13.2 8.2 0
04:45 1037 30.62 866 25.57 -9.5 14.9 75 -13.2 8.2 0
04:46 1037 30.62 866 25.57 -9.6 14.8 73 -13.5 7.7 0
04:47 1037 30.62 866 25.57 -9.8 14.3 74 -13.6 7.5 0
04:48 1037 30.62 866 25.57 -10.1 13.9 74 -13.8 7.1 0
04:49 1037 30.62 866 25.57 -10.3 13.5 75 -13.9 7 0
04:50 1037 30.62 866 25.57 -10.3 13.5 77 -13.6 7.6 0
04:51 1037 30.62 866 25.57 -10.2 13.7 74 -13.9 6.9 0
04:52 1037 30.62 866 25.57 -10.4 13.3 75 -14.1 6.6 0
04:53 1037 30.62 866 25.57 -10.6 12.9 75 -14.2 6.5 0
04:54 1037 30.62 866 25.57 -10.8 12.6 76 -14.3 6.2 0
04:55 1037 30.62 866 25.57 -11 12.3 76 -14.4 6.1 0
04:56 1037 30.62 867 25.6 -11.2 11.9 78 -14.3 6.2 0
04:57 1037 30.62 867 25.6 -11.2 11.8 78 -14.4 6.1 0
04:58 1037 30.62 867 25.6 -11.3 11.6 78 -14.5 6 0
04:59 1037 30.62 867 25.6 -11.5 11.4 79 -14.4 6.1 0
05:00 1037 30.62 867 25.6 -11.4 11.5 81 -14 6.7 0
05:01 1037 30.62 866 25.57 -11.1 12 80 -13.9 7.1 0
05:02 1037 30.62 866 25.57 -10.8 12.6 79 -13.7 7.4 0
05:03 1037 30.62 866 25.57 -10.5 13.1 79 -13.5 7.8 0
05:04 1037 30.62 866 25.57 -9.9 14.2 79 -13 8.7 0
05:05 1037 30.62 866 25.57 -9.3 15.2 73 -13.4 7.9 0
05:06 1037 30.62 867 25.6 -9.3 15.3 70 -13.7 7.3 0
05:07 1037 30.62 867 25.6 -9.7 14.6 72 -13.8 7.1 0
05:08 1037 30.62 867 25.6 -10 13.9 73 -14 6.7 0
05:09 1037 30.62 867 25.6 -10.3 13.4 75 -14 6.8 0
05:10 1037 30.62 867 25.6 -10.5 13 76 -14 6.7 0
05:11 1037 30.62 867 25.6 -10.5 13.1 81 -13.2 8.2 0
05:12 1037 30.62 867 25.6 -9.9 14.2 75 -13.5 7.7 0
05:13 1037 30.62 867 25.6 -9.7 14.6 75 -13.4 8 0
05:14 1037 30.62 867 25.6 -9.5 14.9 73 -13.5 7.7 0
05:15 1037 30.62 867 25.6 -9.6 14.8 73 -13.6 7.5 0
05:16 1037 30.62 867 25.6 -9.7 14.6 73 -13.6 7.5 0
05:17 1037 30.62 867 25.6 -9.8 14.4 74 -13.7 7.4 0
05:18 1037 30.62 867 25.6 -9.9 14.3 73 -13.8 7.2 0
05:19 1037 30.62 866 25.57 -10 14.1 74 -13.8 7.1 0
05:20 1037 30.62 866 25.57 -10.1 13.9 74 -13.8 7.1 0
05:21 1037 30.62 866 25.57 -10.1 13.7 75 -13.8 7.2 0
05:22 1037 30.62 866 25.57 -10.1 13.9 74 -13.9 7 0
05:23 1037 30.62 866 25.57 -10.2 13.7 75 -13.9 7.1 0
05:24 1037 30.62 866 25.57 -10.1 13.8 79 -13.1 8.4 0
05:25 1037 30.62 866 25.57 -9.3 15.2 75 -13 8.5 0
05:26 1037 30.62 866 25.57 -9 15.8 69 -13.7 7.3 0
05:27 1037 30.62 866 25.57 -9.3 15.2 70 -13.8 7.1 0
05:28 1037 30.62 866 25.57 -9.2 15.5 76 -12.6 9.3 0
05:29 1037 30.62 866 25.57 -8.4 16.9 72 -12.6 9.3 0
05:30 1037 30.62 866 25.57 -7.8 17.9 67 -13 8.6 0
05:31 1037 30.62 866 25.57 -8 17.5 66 -13.3 8.1 0
05:32 1037 30.62 866 25.57 -8.4 16.8 67 -13.5 7.8 0
05:33 1037 30.62 866 25.57 -8.3 17.1 68 -13.1 8.4 0
05:34 1037 30.62 866 25.57 -8.4 16.8 65 -13.9 6.9 0
05:35 1037 30.62 866 25.57 -9.3 15.3 66 -14.5 5.9 0
05:36 1037 30.62 866 25.57 -10.1 13.9 71 -14.4 6.1 0
05:37 1037 30.62 866 25.57 -10.6 12.8 76 -14 6.8 0
05:38 1037 30.62 866 25.57 -10.8 12.6 77 -14 6.7 0
05:39 1037 30.62 866 25.57 -10.8 12.6 80 -13.6 7.5 0
05:40 1037 30.62 866 25.57 -10.5 13.1 76 -13.9 6.9 0
05:41 1037 30.62 866 25.57 -10.6 13 77 -13.9 7 0
05:42 1037 30.62 866 25.57 -10.6 12.9 79 -13.6 7.5 0
05:43 1037 30.62 866 25.57 -10.4 13.3 77 -13.6 7.5 0
05:44 1037 30.62 866 25.57 -10.3 13.5 77 -13.6 7.4 0
05:45 1037 30.62 866 25.57 -10.3 13.5 77 -13.6 7.5 0
05:46 1037 30.62 866 25.57 -10.3 13.6 77 -13.5 7.6 0
05:47 1037 30.62 866 25.57 -10.3 13.6 77 -13.5 7.6 0
05:48 1037 30.62 866 25.57 -10.2 13.6 79 -13.3 8.1 0
05:49 1037 30.62 866 25.57 -10 14.1 76 -13.4 7.9 0
05:50 1037 30.62 866 25.57 -10 13.9 75 -13.7 7.4 0
05:51 1037 30.62 866 25.57 -10.2 13.7 75 -13.8 7.2 0
05:52 1037 30.62 866 25.57 -10.3 13.5 76 -13.7 7.3 0
05:53 1037 30.62 866 25.57 -10.3 13.4 76 -13.8 7.1 0
05:54 1037 30.62 866 25.57 -10.4 13.4 76 -13.9 7.1 0
05:55 1037 30.62 866 25.57 -10.5 13.2 74 -14.3 6.2 0
05:56 1037 30.62 866 25.57 -10.7 12.7 78 -13.8 7.2 0
05:57 1037 30.62 866 25.57 -10.8 12.6 79 -13.7 7.4 0
05:58 1037 30.62 866 25.57 -10.7 12.8 78 -13.7 7.3 0
05:59 1037 30.62 866 25.57 -10.6 13 76 -13.9 6.9 0
06:00 1037 30.62 866 25.57 -10.6 12.9 77 -13.9 7 0
06:01 1037 30.62 866 25.57 -10.7 12.8 78 -13.8 7.2 0
06:02 1037 30.62 866 25.57 -10.6 13 77 -13.8 7.1 0
06:03 1037 30.62 866 25.57 -10.6 13 78 -13.7 7.4 0
06:04 1037 30.62 866 25.57 -10.5 13.1 78 -13.6 7.6 0
06:05 1037 30.62 867 25.6 -10.4 13.2 79 -13.4 7.9 0
06:06 1037 30.62 867 25.6 -10.2 13.6 78 -13.4 8 0
06:07 1037 30.62 866 25.57 -10 14 78 -13.2 8.3 0
06:08 1037 30.62 866 25.57 -9.8 14.3 77 -13.1 8.4 0
06:09 1037 30.62 866 25.57 -9.6 14.7 78 -12.8 9 0
06:10 1037 30.62 866 25.57 -9.3 15.3 77 -12.6 9.3 0
06:11 1037 30.62 866 25.57 -9 15.9 75 -12.7 9.2 0
06:12 1037 30.62 866 25.57 -8.8 16.2 75 -12.5 9.5 0
06:13 1037 30.62 866 25.57 -8.5 16.7 74 -12.4 9.7 0
06:14 1037 30.62 866 25.57 -8.2 17.2 72 -12.4 9.6 0
06:15 1037 30.62 866 25.57 -8.1 17.5 69 -12.9 8.9 0
06:16 1037 30.62 866 25.57 -8.3 17 67 -13.5 7.8 0
06:17 1037 30.62 866 25.57 -8.9 15.9 70 -13.4 7.8 0
06:18 1037 30.62 866 25.57 -9.2 15.4 73 -13.3 8.1 0
06:19 1037 30.62 866 25.57 -9.3 15.2 72 -13.6 7.6 0
06:20 1037 30.62 866 25.57 -9.6 14.8 72 -13.7 7.4 0
06:21 1037 30.62 866 25.57 -9.8 14.4 73 -13.7 7.4 0
06:22 1037 30.62 866 25.57 -9.9 14.1 74 -13.8 7.2 0
06:23 1037 30.62 866 25.57 -10.1 13.9 76 -13.6 7.5 0
06:24 1037 30.62 866 25.57 -10 14.1 75 -13.6 7.5 0
06:25 1037 30.62 866 25.57 -9.9 14.3 76 -13.4 7.9 0
06:26 1037 30.62 866 25.57 -9.6 14.7 73 -13.5 7.7 0
06:27 1037 30.62 866 25.57 -9.7 14.6 74 -13.4 7.8 0
06:28 1037 30.62 866 25.57 -9.6 14.7 75 -13.3 8.1 0
06:29 1037 30.62 866 25.57 -9.3 15.2 76 -12.8 8.9 0
06:30 1037 30.62 867 25.6 -8.7 16.3 73 -12.7 9.1 0
06:31 1037 30.62 866 25.57 -8.2 17.2 69 -12.9 8.8 0
06:32 1037 30.62 866 25.57 -8.3 17.1 67 -13.3 8.1 0
06:33 1037 30.62 867 25.6 -8.8 16.2 69 -13.5 7.7 0
06:34 1037 30.62 866 25.57 -9.3 15.3 72 -13.4 7.9 0
06:35 1037 30.62 866 25.57 -9.6 14.8 74 -13.4 7.9 0
06:36 1037 30.62 866 25.57 -9.7 14.5 74 -13.6 7.6 0
06:37 1037 30.62 866 25.57 -9.8 14.3 75 -13.5 7.8 0
06:38 1037 30.62 866 25.57 -9.9 14.3 75 -13.5 7.7 0
06:39 1037 30.62 866 25.57 -9.8 14.5 75 -13.5 7.8 0
06:40 1037 30.62 866 25.57 -9.8 14.5 74 -13.5 7.7 0
06:41 1037 30.62 866 25.57 -9.8 14.3 75 -13.5 7.6 0
06:42 1037 30.62 866 25.57 -9.9 14.2 74 -13.7 7.4 0
06:43 1037 30.62 866 25.57 -10 13.9 75 -13.6 7.5 0
06:44 1037 30.62 866 25.57 -10 14 76 -13.5 7.6 0
06:45 1037 30.62 866 25.57 -10 14 74 -13.8 7.2 0
06:46 1037 30.62 866 25.57 -10.2 13.6 75 -13.9 7 0
06:47 1037 30.62 866 25.57 -10.5 13.2 76 -13.9 6.9 0
06:48 1037 30.62 866 25.57 -10.7 12.8 77 -14 6.8 0
06:49 1037 30.62 866 25.57 -10.7 12.7 79 -13.7 7.3 0
06:50 1037 30.62 866 25.57 -10.5 13 78 -13.6 7.5 0
06:51 1037 30.62 866 25.57 -10.3 13.4 78 -13.5 7.7 0
06:52 1037 30.62 866 25.57 -10.1 13.8 77 -13.5 7.7 0
06:53 1037 30.62 866 25.57 -10 14.1 77 -13.2 8.2 0
06:54 1037 30.62 866 25.57 -9.8 14.4 75 -13.5 7.7 0
06:55 1037 30.62 866 25.57 -9.9 14.2 75 -13.5 7.7 0
06:56 1037 30.62 866 25.57 -9.9 14.1 75 -13.6 7.6 0
06:57 1037 30.62 866 25.57 -9.9 14.1 76 -13.4 7.8 0
06:58 1037 30.62 866 25.57 -9.9 14.2 76 -13.3 8 0
06:59 1037 30.62 866 25.57 -9.7 14.6 77 -13.1 8.5 0
07:00 1037 30.62 866 25.57 -9.4 15.1 74 -13.3 8.1 0
07:01 1037 30.62 866 25.57 -9.4 15.2 74 -13.2 8.2 0
07:02 1037 30.62 866 25.57 -9.3 15.2 72 -13.5 7.6 0
07:03 1037 30.62 866 25.57 -9.6 14.7 72 -13.7 7.4 0
07:04 1037 30.62 866 25.57 -10 14 73 -14 6.8 0
07:05 1037 30.62 866 25.57 -10.3 13.4 75 -14 6.8 0
07:06 1037 30.62 866 25.57 -10.6 12.9 76 -14 6.8 0
07:07 1037 30.62 866 25.57 -10.8 12.6 78 -14 6.8 0
07:08 1037 30.62 866 25.57 -10.8 12.6 78 -13.9 6.9 0
07:09 1037 30.62 866 25.57 -10.8 12.6 78 -14 6.9 0
07:10 1037 30.62 866 25.57 -10.6 12.9 77 -13.9 7 0
07:11 1037 30.62 866 25.57 -10.6 13 76 -14.1 6.6 0
07:12 1037 30.62 866 25.57 -10.7 12.8 76 -14.2 6.5 0
07:13 1037 30.62 866 25.57 -10.8 12.7 76 -14.2 6.4 0
07:14 1037 30.62 866 25.57 -10.9 12.3 76 -14.3 6.3 0
07:15 1037 30.62 866 25.57 -11.1 12.1 77 -14.4 6.1 0
07:16 1037 30.62 866 25.57 -11.2 11.9 77 -14.4 6 0
07:17 1037 30.62 866 25.57 -11.3 11.7 78 -14.4 6.2 0
07:18 1037 30.62 866 25.57 -11.3 11.6 79 -14.4 6.1 0
07:19 1037 30.62 866 25.57 -11.4 11.6 79 -14.3 6.2 0
07:20 1037 30.62 866 25.57 -11.4 11.6 80 -14.1 6.6 0
07:21 1037 30.62 866 25.57 -11.2 11.8 80 -14 6.7 0
07:22 1037 30.62 866 25.57 -11 12.2 79 -13.9 6.9 0
07:23 1037 30.62 866 25.57 -10.8 12.5 79 -13.8 7.1 0
07:24 1037 30.62 866 25.57 -10.7 12.7 77 -14 6.9 0
07:25 1037 30.62 866 25.57 -10.7 12.7 77 -14 6.8 0
07:26 1037 30.62 866 25.57 -10.7 12.8 78 -13.9 7 0
07:27 1037 30.62 866 25.57 -10.6 13 77 -13.8 7.2 0
07:28 1037 30.62 866 25.57 -10.4 13.4 76 -13.7 7.3 0
07:29 1037 30.62 866 25.57 -10.2 13.6 76 -13.7 7.4 0
07:30 1037 30.62 866 25.57 -10.1 13.9 75 -13.6 7.4 0
07:31 1037 30.62 866 25.57 -10 14 75 -13.7 7.4 0
07:32 1037 30.62 866 25.57 -9.9 14.2 74 -13.7 7.3 0
07:33 1037 30.62 866 25.57 -9.9 14.1 74 -13.7 7.3 0
07:34 1037 30.62 866 25.57 -10 14 76 -13.5 7.7 0
07:35 1037 30.62 866 25.57 -9.8 14.3 75 -13.5 7.6 0
07:36 1037 30.62 866 25.57 -9.8 14.3 74 -13.7 7.3 0
07:37 1037 30.62 866 25.57 -9.9 14.2 74 -13.7 7.3 0
07:38 1037 30.62 866 25.57 -10 14 73 -14 6.8 0
07:39 1037 30.62 866 25.57 -10.2 13.6 73 -14.2 6.4 0
07:40 1037 30.62 866 25.57 -10.5 13.2 74 -14.3 6.3 0
07:41 1037 30.62 866 25.57 -10.6 12.9 76 -14.1 6.7 0
07:42 1037 30.62 866 25.57 -10.7 12.8 76 -14.1 6.7 0
07:43 1037 30.62 866 25.57 -10.7 12.8 76 -14.1 6.7 0
07:44 1037 30.62 866 25.57 -10.6 12.9 77 -13.8 7.1 0
07:45 1037 30.62 866 25.57 -10.4 13.3 77 -13.7 7.4 0
07:46 1037 30.62 866 25.57 -10.1 13.7 77 -13.4 7.8 0
07:47 1037 30.62 866 25.57 -9.8 14.4 75 -13.4 7.9 0
07:48 1037 30.62 866 25.57 -9.5 14.9 74 -13.3 8 0
07:49 1037 30.62 866 25.57 -9.4 15.1 73 -13.3 8.1 0
07:50 1037 30.62 866 25.57 -9.3 15.2 73 -13.3 8 0
07:51 1037 30.62 866 25.57 -9.3 15.2 73 -13.3 8.1 0
07:52 1037 30.62 866 25.57 -9.3 15.3 73 -13.3 8.1 0
07:53 1037 30.62 866 25.57 -9.3 15.3 73 -13.2 8.2 0
07:54 1037 30.62 866 25.57 -9.3 15.3 72 -13.5 7.7 0
07:55 1037 30.62 866 25.57 -9.6 14.8 72 -13.8 7.2 0
07:56 1037 30.62 866 25.57 -9.8 14.3 74 -13.7 7.3 0
07:57 1037 30.62 866 25.57 -10 14.1 75 -13.6 7.5 0
07:58 1037 30.62 866 25.57 -10 13.9 73 -14 6.8 0
07:59 1037 30.62 866 25.57 -10.2 13.7 74 -14 6.8 0
08:00 1037 30.62 866 25.57 -10.3 13.4 76 -13.8 7.2 0
08:01 1037 30.62 866 25.57 -10.1 13.9 75 -13.8 7.2 0
08:02 1037 30.62 866 25.57 -9.9 14.1 76 -13.4 8 0
08:03 1037 30.62 866 25.57 -9.6 14.7 75 -13.3 8.1 0
08:04 1037 30.62 866 25.57 -9.2 15.4 73 -13.2 8.3 0
08:05 1037 30.62 866 25.57 -9.1 15.6 71 -13.5 7.6 0
08:06 1037 30.62 866 25.57 -9.3 15.3 72 -13.4 7.8 0
08:07 1037 30.62 866 25.57 -9.3 15.2 72 -13.4 7.8 0
08:08 1037 30.62 866 25.57 -9.1 15.6 73 -13.1 8.4 0
08:09 1037 30.62 866 25.57 -9.1 15.6 69 -13.7 7.3 0
08:10 1037 30.62 867 25.6 -9.3 15.3 75 -13 8.6 0
08:11 1037 30.62 867 25.6 -9 15.9 71 -13.3 8.1 0
08:12 1037 30.62 867 25.6 -8.8 16.1 71 -13.2 8.2 0
08:13 1037 30.62 867 25.6 -8.8 16.1 68 -13.6 7.5 0
08:14 1037 30.62 867 25.6 -9.3 15.3 68 -14.1 6.6 0
08:15 1037 30.62 867 25.6 -9.8 14.4 70 -14.4 6.2 0
08:16 1037 30.62 867 25.6 -10.2 13.6 72 -14.3 6.2 0
08:17 1037 30.62 867 25.6 -10.4 13.3 73 -14.4 6.1 0
08:18 1038 30.65 867 25.6 -10.7 12.7 72 -14.8 5.4 0
08:19 1038 30.65 867 25.6 -11 12.2 75 -14.6 5.8 0
08:20 1038 30.65 867 25.6 -11 12.2 77 -14.3 6.3 0
08:21 1038 30.65 867 25.6 -10.9 12.4 75 -14.4 6 0
08:22 1038 30.65 867 25.6 -10.9 12.4 77 -14.2 6.4 0
08:23 1038 30.65 867 25.6 -10.7 12.8 76 -14.1 6.6 0
08:24 1038 30.65 867 25.6 -10.6 13 76 -14.1 6.7 0
08:25 1038 30.65 867 25.6 -10.5 13.2 75 -14 6.7 0
08:26 1038 30.65 867 25.6 -10.2 13.6 77 -13.6 7.6 0
08:27 1038 30.65 867 25.6 -9.8 14.4 76 -13.2 8.2 0
08:28 1038 30.65 867 25.6 -9.3 15.3 72 -13.4 8 0
08:29 1038 30.65 867 25.6 -9.1 15.7 74 -12.9 8.7 0
08:30 1038 30.65 867 25.6 -8.7 16.3 70 -13.3 8.1 0
08:31 1038 30.65 867 25.6 -8.6 16.5 72 -12.8 9 0
08:32 1038 30.65 867 25.6 -8.1 17.4 72 -12.3 9.8 0
08:33 1038 30.65 867 25.6 -7.4 18.6 68 -12.3 9.8 0
08:34 1038 30.65 867 25.6 -7.1 19.2 65 -12.6 9.4 0
08:35 1038 30.65 867 25.6 -6.9 19.6 64 -12.6 9.3 0
08:36 1038 30.65 867 25.6 -6.8 19.8 64 -12.4 9.7 0
08:37 1038 30.65 867 25.6 -6.9 19.6 59 -13.6 7.5 0
08:38 1038 30.65 867 25.6 -7.5 18.5 62 -13.5 7.6 0
08:39 1038 30.65 867 25.6 -8 17.7 62 -14 6.8 0
08:40 1038 30.65 867 25.6 -8.5 16.6 65 -14 6.8 0
08:41 1038 30.65 867 25.6 -8.8 16.3 67 -13.7 7.3 0
08:42 1038 30.65 867 25.6 -8.9 15.9 67 -13.9 7 0
08:43 1038 30.65 867 25.6 -9.3 15.3 66 -14.4 6 0
08:44 1038 30.65 867 25.6 -9.7 14.6 70 -14.2 6.4 0
08:45 1038 30.65 867 25.6 -9.8 14.4 72 -14 6.8 0
08:46 1038 30.65 867 25.6 -9.8 14.4 71 -14.2 6.4 0
08:47 1038 30.65 867 25.6 -9.9 14.2 71 -14.3 6.3 0
08:48 1038 30.65 867 25.6 -10 14.1 71 -14.2 6.4 0
08:49 1038 30.65 867 25.6 -9.8 14.3 74 -13.6 7.5 0
08:50 1038 30.65 867 25.6 -9.6 14.8 69 -14.2 6.5 0
08:51 1038 30.65 867 25.6 -9.7 14.5 70 -14.2 6.4 0
08:52 1038 30.65 867 25.6 -9.8 14.4 70 -14.2 6.4 0
08:53 1038 30.65 867 25.6 -9.8 14.4 71 -14.2 6.5 0
08:54 1038 30.65 867 25.6 -9.9 14.3 71 -14.1 6.6 0
08:55 1038 30.65 867 25.6 -9.9 14.3 72 -13.9 6.9 0
08:56 1038 30.65 867 25.6 -9.8 14.4 73 -13.8 7.1 0
08:57 1038 30.65 867 25.6 -9.7 14.6 73 -13.6 7.5 0
08:58 1038 30.65 867 25.6 -9.5 14.9 73 -13.4 7.8 0
08:59 1038 30.65 867 25.6 -9.3 15.3 73 -13.4 7.9 0
09:00 1038 30.65 867 25.6 -9.1 15.6 72 -13.3 8 0
09:01 1038 30.65 867 25.6 -9.1 15.7 71 -13.4 7.9 0
09:02 1038 30.65 867 25.6 -8.9 15.9 71 -13.3 8.1 0
09:03 1038 30.65 867 25.6 -8.8 16.2 71 -13.2 8.3 0
09:04 1038 30.65 867 25.6 -8.7 16.3 71 -13.1 8.4 0
09:05 1038 30.65 867 25.6 -8.5 16.6 70 -13 8.6 0
09:06 1038 30.65 867 25.6 -8.4 16.9 70 -13 8.6 0
09:07 1038 30.65 867 25.6 -8.3 17 70 -12.9 8.8 0
09:08 1038 30.65 867 25.6 -8.2 17.2 69 -12.9 8.8 0
09:09 1038 30.65 867 25.6 -8.2 17.3 69 -12.9 8.8 0
09:10 1038 30.65 867 25.6 -8.1 17.4 69 -12.9 8.8 0
09:11 1038 30.65 867 25.6 -8.1 17.3 69 -12.9 8.7 0
09:12 1038 30.65 867 25.6 -8.2 17.2 70 -12.8 9 0
09:13 1038 30.65 867 25.6 -8.1 17.5 71 -12.4 9.6 0
09:14 1038 30.65 867 25.6 -7.9 17.8 71 -12.3 9.8 0
09:15 1038 30.65 867 25.6 -7.7 18.2 69 -12.4 9.6 0
09:16 1038 30.65 867 25.6 -7.4 18.7 68 -12.3 9.8 0
09:17 1038 30.65 867 25.6 -7.2 19 67 -12.4 9.7 0
09:18 1038 30.65 867 25.6 -7.1 19.2 66 -12.4 9.7 0
09:19 1038 30.65 867 25.6 -7 19.3 66 -12.4 9.7 0
09:20 1038 30.65 867 25.6 -7 19.4 65 -12.5 9.4 0
09:21 1038 30.65 867 25.6 -7.1 19.3 66 -12.5 9.5 0
09:22 1038 30.65 867 25.6 -7.1 19.2 66 -12.4 9.7 0
09:23 1038 30.65 867 25.6 -7.1 19.1 66 -12.4 9.7 0
09:24 1038 30.65 867 25.6 -7.1 19.2 66 -12.3 9.8 0
09:25 1038 30.65 867 25.6 -7 19.5 66 -12.3 9.8 0
09:26 1038 30.65 867 25.6 -6.8 19.7 66 -12.2 10 0
09:27 1038 30.65 867 25.6 -6.6 20.1 65 -12.1 10.2 0
09:28 1038 30.65 867 25.6 -6.5 20.3 65 -12.1 10.2 0
09:29 1038 30.65 867 25.6 -6.3 20.7 64 -12 10.4 0
09:30 1038 30.65 867 25.6 -6.1 21 63 -12.1 10.2 0
09:31 1038 30.65 867 25.6 -6 21.2 63 -12.1 10.3 0
09:32 1038 30.65 867 25.6 -6 21.3 63 -11.8 10.7 0
09:33 1038 30.65 867 25.6 -5.8 21.5 63 -11.7 10.9 0
09:34 1038 30.65 867 25.6 -5.7 21.8 63 -11.6 11.1 0
09:35 1038 30.65 867 25.6 -5.5 22.1 62 -11.7 11 0
09:36 1038 30.65 867 25.6 -5.1 22.7 62 -11.4 11.4 0
09:37 1038 30.65 867 25.6 -4.7 23.6 61 -11.1 12.1 0
09:38 1038 30.65 867 25.6 -4.2 24.4 60 -10.9 12.4 0
09:39 1038 30.65 867 25.6 -3.8 25.2 56 -11.3 11.6 0
09:40 1038 30.65 867 25.6 -3.5 25.7 56 -11.1 12.1 0
09:41 1038 30.65 867 25.6 -3.3 26 56 -11 12.2 0
09:42 1038 30.65 867 25.6 -3.4 25.9 57 -10.7 12.8 0
09:43 1038 30.65 867 25.6 -3.6 25.6 57 -10.8 12.5 0
09:44 1038 30.65 867 25.6 -3.8 25.1 55 -11.5 11.3 0
09:45 1038 30.65 867 25.6 -3.9 24.9 59 -10.9 12.5 0
09:46 1038 30.65 867 25.6 -4.2 24.4 61 -10.7 12.7 0
09:47 1038 30.65 867 25.6 -4.4 24.1 61 -10.9 12.4 0
09:48 1038 30.65 867 25.6 -4.4 24.1 61 -10.9 12.4 0
09:49 1038 30.65 867 25.6 -4.3 24.2 60 -11 12.2 0
09:50 1038 30.65 867 25.6 -4.2 24.4 63 -10.3 13.5 0
09:51 1038 30.65 867 25.6 -4.2 24.5 63 -10.2 13.7 0
09:52 1038 30.65 867 25.6 -4.1 24.6 61 -10.6 13 0
09:53 1038 30.65 867 25.6 -4.1 24.6 61 -10.5 13.1 0
09:54 1038 30.65 867 25.6 -4 24.7 61 -10.4 13.3 0
09:55 1038 30.65 867 25.6 -4 24.8 62 -10.2 13.7 0
09:56 1038 30.65 867 25.6 -4.1 24.6 62 -10.4 13.3 0
09:57 1038 30.65 867 25.6 -4.4 24 63 -10.5 13.1 0
09:58 1038 30.65 867 25.6 -4.5 23.9 62 -10.7 12.7 0
09:59 1038 30.65 867 25.6 -4.5 23.9 62 -10.6 12.9 0
10:00 1038 30.65 867 25.6 -4.3 24.2 62 -10.7 12.8 0
10:01 1038 30.65 867 25.6 -4.2 24.4 62 -10.4 13.2 0
10:02 1038 30.65 867 25.6 -4 24.7 59 -10.8 12.5 0
10:03 1038 30.65 867 25.6 -3.7 25.3 59 -10.7 12.8 0
10:04 1038 30.65 867 25.6 -3.3 26.1 58 -10.4 13.2 0
10:05 1038 30.65 867 25.6 -2.7 27.1 55 -10.5 13 0
10:06 1038 30.65 867 25.6 -2.4 27.6 54 -10.4 13.2 0
10:07 1038 30.65 867 25.6 -2.3 27.8 54 -10.4 13.2 0
10:08 1038 30.65 867 25.6 -2.3 27.8 56 -9.9 14.2 0
10:09 1038 30.65 867 25.6 -2.4 27.7 55 -10.3 13.5 0
10:10 1038 30.65 867 25.6 -2.5 27.4 55 -10.4 13.2 0
10:11 1038 30.65 867 25.6 -2.6 27.3 56 -10.2 13.6 0
10:12 1038 30.65 867 25.6 -2.6 27.3 57 -10 14.1 0
10:13 1038 30.65 867 25.6 -2.6 27.3 57 -10.1 13.8 0
10:14 1038 30.65 867 25.6 -2.7 27.2 57 -9.9 14.1 0
10:15 1038 30.65 867 25.6 -2.5 27.4 57 -10 14.1 0
10:16 1038 30.65 867 25.6 -2.4 27.6 54 -10.6 13 0
10:17 1038 30.65 867 25.6 -2.2 28.1 55 -10.1 13.8 0
10:18 1038 30.65 867 25.6 -1.9 28.6 54 -9.9 14.1 0
10:19 1038 30.65 867 25.6 -1.5 29.3 54 -9.6 14.7 0
10:20 1038 30.65 867 25.6 -1.3 29.7 52 -9.8 14.3 0
10:21 1038 30.65 867 25.6 -1.1 30 51 -9.9 14.2 0
10:22 1038 30.65 867 25.6 -0.9 30.4 51 -9.9 14.2 0
10:23 1038 30.65 867 25.6 -0.7 30.7 50 -9.8 14.3 0
10:24 1038 30.65 867 25.6 -0.9 30.5 50 -9.9 14.1 0
10:25 1038 30.65 867 25.6 -1.1 30.1 52 -9.6 14.7 0
10:26 1038 30.65 867 25.6 -1.2 29.9 53 -9.7 14.6 0
10:27 1038 30.65 867 25.6 -1.1 29.9 53 -9.6 14.7 0
10:28 1038 30.65 867 25.6 -1.1 30.1 52 -9.7 14.5 0
10:29 1038 30.65 867 25.6 -1 30.2 51 -9.9 14.3 0
10:30 1038 30.65 867 25.6 -0.9 30.4 50 -10 13.9 0
10:31 1038 30.65 867 25.6 -0.8 30.6 50 -10 14.1 0
10:32 1038 30.65 867 25.6 -0.5 31.1 50 -9.6 14.7 0
10:33 1038 30.65 867 25.6 -0 31.9 48 -9.7 14.5 0
10:34 1038 30.65 867 25.6 0.4 32.7 47 -9.6 14.8 0
10:35 1038 30.65 867 25.6 0.5 32.9 47 -9.7 14.6 0
10:36 1038 30.65 867 25.6 0.5 32.9 47 -9.5 14.9 0
10:37 1038 30.65 867 25.6 0.4 32.7 46 -9.9 14.2 0
10:38 1038 30.65 867 25.6 0.4 32.7 46 -10 14 0
10:39 1038 30.65 867 25.6 0.5 33 45 -10 14 0
10:40 1038 30.65 867 25.6 0.9 33.6 44 -9.9 14.1 0
10:41 1038 30.65 867 25.6 1 33.9 45 -9.5 14.9 0
10:42 1038 30.65 867 25.6 1.1 34 46 -9.2 15.5 0
10:43 1038 30.65 867 25.6 1 33.8 46 -9.4 15.1 0
10:44 1038 30.65 867 25.6 0.9 33.6 44 -10.1 13.8 0
10:45 1038 30.65 867 25.6 0.8 33.5 44 -10.1 13.8 0
10:46 1038 30.65 867 25.6 0.8 33.4 44 -10.3 13.5 0
10:47 1038 30.65 867 25.6 0.8 33.4 46 -9.7 14.5 0
10:48 1038 30.65 867 25.6 0.8 33.5 46 -9.4 15 0
10:49 1038 30.65 867 25.6 0.8 33.5 46 -9.5 14.9 0
10:50 1038 30.65 867 25.6 0.8 33.4 48 -9.1 15.6 0
10:51 1038 30.65 867 25.6 0.9 33.7 45 -9.8 14.4 0
10:52 1038 30.65 867 25.6 1.1 34 43 -10.1 13.9 0
10:53 1038 30.65 867 25.6 1.1 33.9 44 -10 14 0
10:54 1038 30.65 867 25.6 1 33.8 44 -9.9 14.2 0
10:55 1038 30.65 867 25.6 0.8 33.5 45 -9.9 14.1 0
10:56 1038 30.65 867 25.6 0.5 33 45 -10.1 13.8 0
10:57 1038 30.65 867 25.6 0.3 32.5 46 -10 14.1 0
10:58 1038 30.65 867 25.6 0.1 32.2 47 -9.9 14.1 0
10:59 1038 30.65 867 25.6 0 32.1 48 -9.7 14.5 0
11:00 1038 30.65 867 25.6 0 32 48 -9.7 14.5 0
11:01 1038 30.65 867 25.6 -0 32 48 -9.7 14.6 0
11:02 1038 30.65 867 25.6 -0.1 31.8 48 -9.8 14.3 0
11:03 1038 30.65 867 25.6 -0.2 31.7 49 -9.6 14.7 0
11:04 1038 30.65 867 25.6 -0.2 31.7 49 -9.6 14.8 0
11:05 1038 30.65 867 25.6 -0.1 31.8 50 -9.4 15.1 0
11:06 1038 30.65 867 25.6 -0.1 31.9 50 -9.4 15.1 0
11:07 1038 30.65 867 25.6 0.1 32.1 49 -9.3 15.2 0
11:08 1038 30.65 867 25.6 0.3 32.5 49 -9.4 15.2 0
11:09 1038 30.65 867 25.6 0.4 32.7 47 -9.5 14.9 0
11:10 1038 30.65 867 25.6 0.6 33.1 47 -9.5 14.9 0
11:11 1038 30.65 867 25.6 0.9 33.5 48 -9 15.8 0
11:12 1038 30.65 867 25.6 1.1 34 45 -9.6 14.7 0
11:13 1038 30.65 867 25.6 1.2 34.2 45 -9.5 14.9 0
11:14 1038 30.65 867 25.6 1.3 34.3 46 -9.3 15.3 0
11:15 1038 30.65 867 25.6 1.4 34.5 45 -9.3 15.2 0
11:16 1038 30.65 867 25.6 1.6 34.8 45 -9.2 15.4 0
11:17 1038 30.65 867 25.6 1.9 35.4 43 -9.3 15.2 0
11:18 1038 30.65 867 25.6 2.2 35.9 43 -9.3 15.3 0
11:19 1038 30.65 867 25.6 2.3 36.1 41 -9.5 14.9 0
11:20 1038 30.65 867 25.6 2 35.6 42 -9.6 14.7 0
11:21 1038 30.65 867 25.6 1.8 35.2 44 -9.1 15.6 0
11:22 1038 30.65 867 25.6 1.6 35 45 -9 15.8 0
11:23 1038 30.65 867 25.6 1.5 34.7 47 -8.8 16.2 0
11:24 1038 30.65 867 25.6 1.3 34.3 46 -9.2 15.4 0
11:25 1038 30.65 867 25.6 1.1 34 46 -9.2 15.4 0
11:26 1038 30.65 867 25.6 0.9 33.6 46 -9.4 15 0
11:27 1038 30.65 867 25.6 0.9 33.6 47 -9.3 15.2 0
11:28 1038 30.65 867 25.6 0.9 33.6 48 -9 15.8 0
11:29 1038 30.65 867 25.6 0.8 33.5 47 -9.3 15.3 0
11:30 1038 30.65 867 25.6 0.8 33.4 49 -8.7 16.4 0
11:31 1038 30.65 867 25.6 0.7 33.2 47 -9.3 15.2 0
11:32 1038 30.65 867 25.6 0.5 33 48 -9.1 15.5 0
11:33 1038 30.65 867 25.6 0.6 33 49 -9 15.8 0
11:34 1038 30.65 867 25.6 0.6 33 48 -9.2 15.4 0
11:35 1038 30.65 867 25.6 0.6 33 49 -8.9 15.9 0
11:36 1038 30.65 867 25.6 0.6 33.1 48 -9.1 15.6 0
11:37 1038 30.65 867 25.6 0.6 33.1 48 -9.1 15.6 0
11:38 1038 30.65 867 25.6 0.7 33.3 48 -9.2 15.5 0
11:39 1038 30.65 867 25.6 0.7 33.3 50 -8.7 16.4 0
11:40 1038 30.65 867 25.6 0.8 33.5 48 -9 15.8 0
11:41 1038 30.65 867 25.6 1 33.7 50 -8.4 16.8 0
11:42 1037 30.62 867 25.6 0.9 33.6 49 -8.7 16.3 0
11:43 1038 30.65 867 25.6 0.8 33.4 49 -8.7 16.3 0
11:44 1037 30.62 867 25.6 0.7 33.2 49 -8.8 16.2 0
11:45 1037 30.62 867 25.6 0.7 33.2 52 -8.1 17.3 0
11:46 1037 30.62 867 25.6 0.7 33.2 51 -8.4 16.9 0
11:47 1037 30.62 867 25.6 0.6 33.1 53 -7.9 17.8 0
11:48 1037 30.62 867 25.6 0.6 33.1 54 -7.7 18.1 0
11:49 1037 30.62 867 25.6 0.6 33 54 -7.8 18 0
11:50 1037 30.62 867 25.6 0.5 32.9 53 -7.9 17.7 0
11:51 1037 30.62 867 25.6 0.5 32.8 55 -7.5 18.5 0
11:52 1037 30.62 867 25.6 0.5 32.9 52 -8.1 17.4 0
11:53 1037 30.62 867 25.6 0.5 32.8 51 -8.6 16.6 0
11:54 1037 30.62 867 25.6 0.3 32.6 53 -8.1 17.4 0
11:55 1037 30.62 867 25.6 0.3 32.5 50 -8.9 16 0
11:56 1037 30.62 867 25.6 0.3 32.5 54 -8 17.6 0
11:57 1037 30.62 867 25.6 0.3 32.5 52 -8.4 16.9 0
11:58 1037 30.62 867 25.6 0.3 32.5 53 -8.2 17.2 0
11:59 1037 30.62 867 25.6 0.4 32.6 51 -8.6 16.5 0
12:00 1037 30.62 867 25.6 0.4 32.7 53 -8.2 17.2 0
12:01 1037 30.62 867 25.6 0.4 32.8 52 -8.4 16.9 0
12:02 1037 30.62 867 25.6 0.5 32.9 50 -8.6 16.4 0
12:03 1037 30.62 867 25.6 0.5 33 52 -8.2 17.2 0
12:04 1037 30.62 866 25.57 0.6 33 51 -8.6 16.6 0
12:05 1037 30.62 866 25.57 0.6 33 51 -8.5 16.7 0
12:06 1037 30.62 866 25.57 0.6 33.1 51 -8.5 16.8 0
12:07 1037 30.62 866 25.57 0.6 33.1 51 -8.5 16.8 0
12:08 1037 30.62 866 25.57 0.6 33 53 -8 17.6 0
12:09 1037 30.62 866 25.57 0.6 33.1 52 -8 17.5 0
12:10 1037 30.62 866 25.57 0.6 33.2 53 -7.9 17.7 0
12:11 1037 30.62 866 25.57 0.7 33.3 53 -7.7 18.1 0
12:12 1037 30.62 866 25.57 0.7 33.3 54 -7.5 18.4 0
12:13 1037 30.62 866 25.57 0.8 33.4 55 -7.4 18.8 0
12:14 1037 30.62 866 25.57 0.8 33.4 53 -7.6 18.3 0
12:15 1037 30.62 866 25.57 0.9 33.5 54 -7.3 18.8 0
12:16 1037 30.62 866 25.57 1 33.7 52 -7.9 17.8 0
12:17 1037 30.62 866 25.57 1 33.8 52 -7.7 18.1 0
12:18 1037 30.62 866 25.57 1.1 34.1 52 -7.7 18.1 0
12:19 1037 30.62 866 25.57 1.2 34.1 54 -7.1 19.2 0
12:20 1037 30.62 866 25.57 1.3 34.3 53 -7.3 18.8 0
12:21 1037 30.62 866 25.57 1.4 34.6 51 -7.7 18.1 0
12:22 1037 30.62 866 25.57 1.5 34.8 49 -8.1 17.5 0
12:23 1037 30.62 866 25.57 1.6 34.9 50 -7.7 18.1 0
12:24 1037 30.62 866 25.57 1.9 35.3 48 -8 17.5 0
12:25 1037 30.62 866 25.57 2.1 35.8 47 -8.1 17.4 0
12:26 1037 30.62 866 25.57 2.3 36.2 47 -7.8 17.9 0
12:27 1037 30.62 866 25.57 2.6 36.6 47 -7.7 18.1 0
12:28 1037 30.62 866 25.57 2.9 37.2 44 -8 17.5 0
12:29 1037 30.62 866 25.57 3.3 38 45 -7.6 18.3 0
12:30 1037 30.62 866 25.57 3.5 38.4 44 -7.7 18.1 0
12:31 1037 30.62 866 25.57 3.4 38.2 44 -7.6 18.4 0
12:32 1037 30.62 866 25.57 3.3 38 44 -7.7 18.2 0
12:33 1037 30.62 866 25.57 3 37.5 46 -7.6 18.3 0
12:34 1037 30.62 866 25.57 2.8 37 46 -7.6 18.3 0
12:35 1037 30.62 866 25.57 2.5 36.6 46 -7.8 17.9 0
12:36 1037 30.62 866 25.57 2.3 36.2 47 -8 17.6 0
12:37 1037 30.62 866 25.57 2.2 35.9 48 -7.6 18.2 0
12:38 1037 30.62 866 25.57 2.1 35.7 47 -8.2 17.2 0
12:39 1037 30.62 866 25.57 1.9 35.5 48 -8.1 17.5 0
12:40 1037 30.62 866 25.57 1.9 35.5 49 -7.6 18.3 0
12:41 1037 30.62 866 25.57 1.9 35.5 49 -7.8 18 0
12:42 1037 30.62 866 25.57 1.9 35.5 49 -7.6 18.4 0
12:43 1037 30.62 866 25.57 1.9 35.4 48 -8 17.5 0
12:44 1037 30.62 866 25.57 1.8 35.3 48 -8.2 17.3 0
12:45 1037 30.62 866 25.57 1.8 35.3 48 -7.9 17.7 0
12:46 1037 30.62 866 25.57 1.7 35.1 49 -7.9 17.7 0
12:47 1037 30.62 866 25.57 1.7 35 48 -8 17.5 0
12:48 1037 30.62 866 25.57 1.7 35.1 48 -8.1 17.4 0
12:49 1037 30.62 866 25.57 1.8 35.2 48 -8.1 17.5 0
12:50 1037 30.62 866 25.57 2 35.7 48 -8 17.7 0
12:51 1037 30.62 866 25.57 2.1 35.7 48 -7.7 18.1 0
12:52 1037 30.62 866 25.57 2.1 35.8 47 -8 17.6 0
12:53 1037 30.62 866 25.57 2 35.7 50 -7.3 18.8 0
12:54 1037 30.62 866 25.57 2 35.6 50 -7.4 18.7 0
12:55 1037 30.62 866 25.57 1.9 35.5 50 -7.5 18.6 0
12:56 1037 30.62 866 25.57 1.9 35.5 50 -7.4 18.7 0
12:57 1037 30.62 866 25.57 1.9 35.5 50 -7.5 18.5 0
12:58 1037 30.62 866 25.57 1.8 35.2 48 -8 17.5 0
12:59 1036 30.59 866 25.57 1.8 35.2 51 -7.4 18.6 0
13:00 1036 30.59 866 25.57 1.8 35.3 49 -7.7 18.1 0
13:01 1036 30.59 866 25.57 1.7 35 50 -7.6 18.2 0
13:02 1036 30.59 866 25.57 1.6 34.9 51 -7.6 18.3 0
13:03 1036 30.59 866 25.57 1.6 35 50 -7.6 18.4 0
13:04 1036 30.59 866 25.57 1.6 35 50 -7.6 18.3 0
13:05 1036 30.59 866 25.57 1.6 34.9 50 -7.7 18.2 0
13:06 1036 30.59 866 25.57 1.6 34.8 50 -7.6 18.2 0
13:07 1036 30.59 866 25.57 1.6 34.9 52 -7.3 18.9 0
13:08 1036 30.59 866 25.57 1.6 34.9 51 -7.4 18.7 0
13:09 1036 30.59 866 25.57 1.6 34.9 50 -7.7 18.1 0
13:10 1036 30.59 866 25.57 1.6 34.8 50 -7.7 18.1 0
13:11 1036 30.59 865 25.54 1.6 34.8 51 -7.6 18.3 0
13:12 1036 30.59 865 25.54 1.6 34.8 51 -7.4 18.7 0
13:13 1036 30.59 865 25.54 1.6 34.9 50 -7.7 18.2 0
13:14 1036 30.59 865 25.54 1.7 35 51 -7.4 18.6 0
13:15 1036 30.59 865 25.54 1.7 35.1 50 -7.6 18.3 0
13:16 1036 30.59 865 25.54 1.8 35.3 51 -7.2 19 0
13:17 1036 30.59 865 25.54 1.8 35.3 51 -7.2 19 0
13:18 1036 30.59 865 25.54 1.9 35.4 50 -7.5 18.5 0
13:19 1036 30.59 865 25.54 1.9 35.4 51 -7.1 19.2 0
13:20 1036 30.59 865 25.54 1.9 35.5 50 -7.4 18.6 0
13:21 1036 30.59 865 25.54 2.1 35.8 51 -7 19.3 0
13:22 1036 30.59 865 25.54 2.2 36 52 -6.7 20 0
13:23 1036 30.59 865 25.54 2.2 36 50 -7.1 19.2 0
13:24 1036 30.59 865 25.54 2 35.7 50 -7.2 19.1 0
13:25 1036 30.59 865 25.54 1.9 35.5 53 -6.7 19.9 0
13:26 1036 30.59 865 25.54 1.8 35.2 53 -6.9 19.5 0
13:27 1036 30.59 865 25.54 1.7 35 54 -6.7 20 0
13:28 1036 30.59 865 25.54 1.5 34.8 54 -6.7 19.9 0
13:29 1036 30.59 865 25.54 1.5 34.7 56 -6.2 20.8 0
13:30 1036 30.59 865 25.54 1.5 34.7 54 -6.8 19.8 0
13:31 1036 30.59 865 25.54 1.5 34.7 56 -6.4 20.6 0
13:32 1036 30.59 865 25.54 1.5 34.8 54 -6.8 19.7 0
13:33 1036 30.59 865 25.54 1.5 34.8 55 -6.6 20 0
13:34 1036 30.59 865 25.54 1.6 34.9 54 -6.8 19.7 0
13:35 1036 30.59 865 25.54 1.5 34.8 52 -7.2 19 0
13:36 1036 30.59 865 25.54 1.5 34.7 53 -7.2 19.1 0
13:37 1036 30.59 865 25.54 1.4 34.6 55 -6.6 20.1 0
13:38 1036 30.59 865 25.54 1.5 34.7 54 -6.7 19.9 0
13:39 1036 30.59 865 25.54 1.4 34.5 55 -6.8 19.8 0
13:40 1036 30.59 865 25.54 1.4 34.6 56 -6.4 20.5 0
13:41 1036 30.59 865 25.54 1.5 34.7 54 -6.8 19.8 0
13:42 1036 30.59 865 25.54 1.5 34.6 55 -6.6 20.1 0
13:43 1036 30.59 865 25.54 1.5 34.7 56 -6.3 20.7 0
13:44 1036 30.59 865 25.54 1.6 34.8 55 -6.6 20.1 0
13:45 1036 30.59 865 25.54 1.6 35 56 -6.1 21 0
13:46 1036 30.59 865 25.54 1.7 35.1 54 -6.6 20.2 0
13:47 1036 30.59 865 25.54 1.8 35.2 53 -6.7 19.9 0
13:48 1036 30.59 865 25.54 1.7 35.1 56 -6.2 20.9 0
13:49 1036 30.59 865 25.54 1.8 35.3 54 -6.4 20.4 0
13:50 1036 30.59 865 25.54 1.8 35.3 52 -6.9 19.6 0
13:51 1036 30.59 865 25.54 1.8 35.3 54 -6.5 20.2 0
13:52 1036 30.59 865 25.54 1.9 35.5 52 -7 19.5 0
13:53 1036 30.59 865 25.54 2 35.7 52 -6.7 20 0
13:54 1036 30.59 865 25.54 2.2 36 51 -7 19.4 0
13:55 1036 30.59 865 25.54 2.4 36.4 50 -7 19.5 0
13:56 1036 30.59 865 25.54 2.6 36.6 49 -7 19.4 0
13:57 1036 30.59 865 25.54 2.7 36.8 50 -6.7 20 0
13:58 1036 30.59 865 25.54 2.8 37 50 -6.7 20 0
13:59 1036 30.59 865 25.54 2.9 37.2 48 -7.1 19.2 0
14:00 1036 30.59 865 25.54 3 37.4 47 -7.3 18.9 0
14:01 1036 30.59 865 25.54 3.1 37.6 46 -7.3 18.9 0
14:02 1036 30.59 865 25.54 3.3 38 47 -7 19.5 0
14:03 1036 30.59 865 25.54 3.5 38.3 46 -7.2 19.1 0
14:04 1036 30.59 865 25.54 3.6 38.4 48 -6.5 20.3 0
14:05 1036 30.59 865 25.54 3.5 38.2 48 -6.7 20 0
14:06 1036 30.59 865 25.54 3.3 38 49 -6.3 20.6 0
14:07 1036 30.59 865 25.54 3.1 37.6 50 -6.3 20.7 0
14:08 1036 30.59 865 25.54 3 37.4 47 -7.1 19.2 0
14:09 1036 30.59 865 25.54 2.9 37.2 50 -6.4 20.4 0
14:10 1036 30.59 865 25.54 2.9 37.1 46 -7.6 18.3 0
14:11 1036 30.59 865 25.54 2.9 37.1 49 -6.9 19.5 0
14:12 1036 30.59 865 25.54 2.9 37.2 49 -6.7 19.9 0
14:13 1036 30.59 865 25.54 2.8 37.1 50 -6.5 20.3 0
14:14 1036 30.59 865 25.54 2.9 37.2 48 -7.2 19.1 0
14:15 1036 30.59 865 25.54 2.8 37.1 49 -6.8 19.8 0
14:16 1036 30.59 865 25.54 2.8 37.1 50 -6.6 20.2 0
14:17 1036 30.59 865 25.54 2.8 37.1 49 -6.8 19.8 0
14:18 1036 30.59 865 25.54 2.8 37.1 48 -7 19.4 0
14:19 1036 30.59 865 25.54 2.8 37.1 45 -7.8 17.9 0
14:20 1036 30.59 865 25.54 2.8 37 49 -6.9 19.7 0
14:21 1036 30.59 865 25.54 2.8 37 51 -6.2 20.8 0
14:22 1036 30.59 865 25.54 2.7 36.8 52 -6.2 20.9 0
14:23 1036 30.59 865 25.54 2.5 36.6 50 -6.9 19.5 0
14:24 1036 30.59 865 25.54 2.4 36.3 48 -7.5 18.6 0
14:25 1036 30.59 865 25.54 2.4 36.3 50 -6.9 19.6 0
14:26 1036 30.59 865 25.54 2.5 36.4 47 -7.8 18 0
14:27 1036 30.59 865 25.54 2.5 36.5 49 -7.2 19.1 0
14:28 1036 30.59 865 25.54 2.6 36.8 51 -6.6 20.2 0
14:29 1035 30.56 865 25.54 2.7 36.9 51 -6.5 20.3 0
14:30 1035 30.56 865 25.54 2.9 37.2 51 -6.3 20.7 0
14:31 1036 30.59 865 25.54 3 37.4 47 -7.1 19.2 0
14:32 1035 30.56 865 25.54 3.1 37.6 46 -7.3 18.8 0
14:33 1035 30.56 865 25.54 3.2 37.7 47 -7.2 19 0
14:34 1035 30.56 865 25.54 3.2 37.7 50 -6.3 20.6 0
14:35 1035 30.56 865 25.54 3.3 37.9 50 -6.1 21.1 0
14:36 1035 30.56 865 25.54 3.4 38.1 47 -6.9 19.6 0
14:37 1035 30.56 865 25.54 3.4 38.2 46 -7.1 19.2 0
14:38 1035 30.56 865 25.54 3.4 38.1 46 -7.1 19.2 0
14:39 1035 30.56 865 25.54 3.3 37.9 49 -6.5 20.2 0
14:40 1035 30.56 865 25.54 3.3 38 48 -6.7 19.9 0
14:41 1035 30.56 865 25.54 3.3 38 46 -7.3 18.9 0
14:42 1035 30.56 865 25.54 3.3 38 45 -7.4 18.7 0
14:43 1035 30.56 865 25.54 3.3 38 45 -7.6 18.3 0
14:44 1035 30.56 865 25.54 3.3 38 47 -7 19.4 0
14:45 1035 30.56 864 25.51 3.4 38.1 48 -6.6 20.1 0
14:46 1035 30.56 864 25.51 3.4 38.2 47 -6.8 19.8 0
14:47 1035 30.56 864 25.51 3.5 38.3 49 -6.3 20.6 0
14:48 1035 30.56 864 25.51 3.5 38.3 48 -6.6 20.1 0
14:49 1035 30.56 864 25.51 3.5 38.3 49 -6.3 20.6 0
14:50 1035 30.56 864 25.51 3.5 38.4 48 -6.5 20.4 0
14:51 1035 30.56 864 25.51 3.6 38.4 49 -6.3 20.7 0
14:52 1035 30.56 864 25.51 3.5 38.3 48 -6.5 20.2 0
14:53 1035 30.56 864 25.51 3.5 38.4 47 -6.6 20.1 0
14:54 1035 30.56 864 25.51 3.6 38.6 47 -6.5 20.3 0
14:55 1035 30.56 864 25.51 3.7 38.6 48 -6.4 20.5 0
14:56 1035 30.56 864 25.51 3.7 38.6 47 -6.7 19.9 0
14:57 1035 30.56 864 25.51 3.6 38.5 47 -6.8 19.8 0
14:58 1035 30.56 864 25.51 3.6 38.5 47 -6.6 20 0
14:59 1035 30.56 864 25.51 3.6 38.5 48 -6.5 20.3 0
15:00 1035 30.56 864 25.51 3.6 38.5 46 -7 19.4 0
15:01 1035 30.56 864 25.51 3.5 38.3 45 -7.4 18.7 0
15:02 1035 30.56 864 25.51 3.4 38.1 46 -7.2 19.1 0
15:03 1035 30.56 864 25.51 3.3 38 46 -7.3 18.9 0
15:04 1035 30.56 864 25.51 3.3 37.9 47 -7.1 19.3 0
15:05 1035 30.56 864 25.51 3.2 37.8 48 -6.9 19.6 0
15:06 1035 30.56 864 25.51 3.2 37.8 49 -6.6 20.1 0
15:07 1035 30.56 864 25.51 3.1 37.7 48 -6.8 19.8 0
15:08 1035 30.56 864 25.51 3.1 37.6 50 -6.4 20.5 0
15:09 1035 30.56 864 25.51 3.1 37.6 49 -6.5 20.3 0
15:10 1035 30.56 864 25.51 3.1 37.6 50 -6.4 20.4 0
15:11 1035 30.56 864 25.51 3.1 37.5 49 -6.7 19.9 0
15:12 1035 30.56 864 25.51 3.1 37.6 51 -6.2 20.9 0
15:13 1035 30.56 864 25.51 3.1 37.6 50 -6.2 20.8 0
15:14 1035 30.56 864 25.51 3.2 37.7 49 -6.6 20.2 0
15:15 1035 30.56 864 25.51 3.2 37.8 48 -6.8 19.8 0
15:16 1035 30.56 864 25.51 3.3 37.9 49 -6.4 20.4 0
15:17 1035 30.56 864 25.51 3.3 37.9 47 -6.8 19.7 0
15:18 1035 30.56 864 25.51 3.3 38 47 -6.9 19.6 0
15:19 1035 30.56 864 25.51 3.3 38 47 -6.9 19.5 0
15:20 1035 30.56 864 25.51 3.4 38.1 46 -7 19.3 0
15:21 1035 30.56 864 25.51 3.5 38.3 49 -6.2 20.9 0
15:22 1035 30.56 864 25.51 3.7 38.6 48 -6.3 20.7 0
15:23 1035 30.56 864 25.51 3.7 38.7 49 -6.2 20.9 0
15:24 1035 30.56 864 25.51 3.8 38.9 47 -6.3 20.6 0
15:25 1035 30.56 864 25.51 4 39.2 47 -6.2 20.8 0
15:26 1035 30.56 864 25.51 4.2 39.6 46 -6.3 20.7 0
15:27 1035 30.56 864 25.51 4.3 39.7 46 -6.2 20.8 0
15:28 1035 30.56 864 25.51 4.4 40 49 -5.5 22.2 0
15:29 1035 30.56 864 25.51 4.5 40.1 50 -5.1 22.8 0
15:30 1035 30.56 864 25.51 4.3 39.8 50 -5.2 22.6 0
15:31 1035 30.56 864 25.51 4.1 39.4 52 -5 23.1 0
15:32 1035 30.56 864 25.51 3.8 38.9 52 -5.1 22.8 0
15:33 1035 30.56 864 25.51 3.7 38.6 54 -4.9 23.2 0
15:34 1035 30.56 864 25.51 3.5 38.2 52 -5.5 22 0
15:35 1035 30.56 864 25.51 3.3 37.9 52 -5.8 21.6 0
15:36 1035 30.56 864 25.51 3.1 37.6 54 -5.2 22.7 0
15:37 1035 30.56 864 25.51 3 37.5 55 -5.1 22.9 0
15:38 1035 30.56 864 25.51 3 37.4 54 -5.4 22.3 0
15:39 1035 30.56 864 25.51 2.9 37.3 54 -5.4 22.3 0
15:40 1035 30.56 864 25.51 2.9 37.1 55 -5.2 22.6 0
15:41 1035 30.56 864 25.51 2.8 37 56 -5.2 22.6 0
15:42 1035 30.56 864 25.51 2.7 36.9 55 -5.5 22.1 0
15:43 1035 30.56 864 25.51 2.7 36.8 55 -5.4 22.2 0
15:44 1035 30.56 864 25.51 2.6 36.7 55 -5.5 22.1 0
15:45 1035 30.56 864 25.51 2.6 36.7 55 -5.6 21.9 0
15:46 1035 30.56 864 25.51 2.6 36.7 55 -5.5 22.2 0
15:47 1035 30.56 864 25.51 2.6 36.7 55 -5.6 22 0
15:48 1035 30.56 864 25.51 2.6 36.7 55 -5.6 21.9 0
15:49 1035 30.56 864 25.51 2.6 36.7 54 -5.8 21.6 0
15:50 1035 30.56 864 25.51 2.7 36.8 53 -6.1 21.1 0
15:51 1035 30.56 864 25.51 2.7 36.9 53 -6 21.2 0
15:52 1035 30.56 864 25.51 2.8 37 52 -6 21.2 0
15:53 1035 30.56 864 25.51 2.8 37.1 52 -6 21.3 0
15:54 1035 30.56 864 25.51 2.9 37.2 52 -5.9 21.3 0
15:55 1035 30.56 864 25.51 2.9 37.3 52 -6 21.2 0
15:56 1035 30.56 864 25.51 3 37.4 53 -5.8 21.6 0
15:57 1035 30.56 864 25.51 3 37.5 54 -5.5 22.2 0
15:58 1035 30.56 864 25.51 3.1 37.6 53 -5.6 21.9 0
15:59 1035 30.56 864 25.51 3.1 37.6 52 -5.7 21.7 0
16:00 1035 30.56 864 25.51 3.1 37.5 53 -5.7 21.7 0
16:01 1035 30.56 864 25.51 3 37.4 53 -5.6 21.9 0
16:02 1035 30.56 864 25.51 2.9 37.3 53 -5.7 21.7 0
16:03 1035 30.56 864 25.51 2.9 37.2 53 -5.7 21.7 0
16:04 1035 30.56 864 25.51 2.8 37.1 54 -5.7 21.8 0
16:05 1035 30.56 864 25.51 2.8 37 51 -6.4 20.5 0
16:06 1035 30.56 864 25.51 2.7 36.9 51 -6.5 20.3 0
16:07 1035 30.56 864 25.51 2.7 36.8 51 -6.5 20.3 0
16:08 1035 30.56 864 25.51 2.6 36.7 50 -6.9 19.6 0
16:09 1035 30.56 864 25.51 2.6 36.7 50 -6.9 19.7 0
16:10 1035 30.56 864 25.51 2.6 36.7 50 -6.7 19.9 0
16:11 1035 30.56 864 25.51 2.6 36.6 52 -6.3 20.6 0
16:12 1035 30.56 864 25.51 2.5 36.4 52 -6.4 20.4 0
16:13 1035 30.56 864 25.51 2.3 36.1 52 -6.7 20 0
16:14 1035 30.56 864 25.51 2.2 36 55 -5.8 21.6 0
16:15 1035 30.56 864 25.51 2.1 35.8 56 -5.8 21.5 0
16:16 1035 30.56 864 25.51 1.9 35.5 57 -5.7 21.7 0
16:17 1035 30.56 864 25.51 1.8 35.2 57 -5.9 21.3 0
16:18 1035 30.56 864 25.51 1.7 35 57 -6 21.2 0
16:19 1035 30.56 864 25.51 1.6 34.8 57 -6.2 20.9 0
16:20 1035 30.56 864 25.51 1.5 34.7 57 -6.1 21 0
16:21 1035 30.56 864 25.51 1.4 34.5 57 -6.1 21 0
16:22 1035 30.56 864 25.51 1.4 34.5 58 -6.1 21 0
16:23 1035 30.56 864 25.51 1.3 34.4 57 -6.2 20.8 0
16:24 1035 30.56 864 25.51 1.3 34.3 57 -6.2 20.8 0
16:25 1035 30.56 864 25.51 1.2 34.2 57 -6.3 20.6 0
16:26 1035 30.56 864 25.51 1.2 34.2 57 -6.4 20.5 0
16:27 1035 30.56 864 25.51 1.1 34 57 -6.4 20.5 0
16:28 1035 30.56 864 25.51 1.1 33.9 57 -6.5 20.3 0
16:29 1035 30.56 864 25.51 1.1 33.9 58 -6.4 20.5 0
16:30 1035 30.56 864 25.51 1.1 33.9 58 -6.3 20.6 0
16:31 1035 30.56 864 25.51 1 33.8 58 -6.3 20.7 0
16:32 1035 30.56 864 25.51 1.1 33.9 58 -6.4 20.5 0
16:33 1035 30.56 864 25.51 1.1 34 57 -6.4 20.6 0
16:34 1035 30.56 864 25.51 1.1 34 57 -6.4 20.4 0
16:35 1035 30.56 864 25.51 1.2 34.2 57 -6.4 20.5 0
16:36 1035 30.56 864 25.51 1.3 34.3 56 -6.5 20.4 0
16:37 1035 30.56 864 25.51 1.3 34.4 57 -6.4 20.5 0
16:38 1035 30.56 864 25.51 1.4 34.6 56 -6.3 20.6 0
16:39 1035 30.56 864 25.51 1.6 34.9 56 -6.4 20.5 0
16:40 1035 30.56 864 25.51 1.7 35 55 -6.4 20.4 0
16:41 1035 30.56 864 25.51 1.9 35.3 54 -6.5 20.4 0
16:42 1035 30.56 864 25.51 2 35.6 53 -6.6 20.1 0
16:43 1035 30.56 864 25.51 1.9 35.4 54 -6.6 20.2 0
16:44 1035 30.56 864 25.51 1.6 34.8 54 -6.7 20 0
16:45 1035 30.56 864 25.51 1.3 34.4 55 -6.7 19.9 0
16:46 1035 30.56 864 25.51 1.3 34.3 55 -6.8 19.8 0
16:47 1035 30.56 864 25.51 1.1 34 56 -6.8 19.7 0
16:48 1035 30.56 864 25.51 0.9 33.5 56 -7 19.4 0
16:49 1035 30.56 864 25.51 0.6 33.1 56 -7.1 19.2 0
16:50 1035 30.56 864 25.51 0.4 32.7 57 -7.2 19 0
16:51 1035 30.56 864 25.51 0.3 32.5 57 -7.3 18.9 0
16:52 1035 30.56 864 25.51 0.2 32.3 57 -7.4 18.7 0
16:53 1035 30.56 864 25.51 0.1 32.2 59 -6.9 19.5 0
16:54 1035 30.56 864 25.51 -0 32 59 -7 19.4 0
16:55 1035 30.56 864 25.51 -0.1 31.8 59 -7.1 19.2 0
16:56 1035 30.56 864 25.51 -0.2 31.7 59 -7.2 19 0
16:57 1035 30.56 864 25.51 -0.2 31.7 59 -7.3 18.8 0
16:58 1035 30.56 864 25.51 -0.1 31.7 58 -7.4 18.7 0
16:59 1035 30.56 864 25.51 -0.1 31.8 58 -7.4 18.7 0
17:00 1035 30.56 864 25.51 -0.1 31.7 58 -7.5 18.5 0
17:01 1035 30.56 864 25.51 -0.2 31.7 58 -7.4 18.6 0
17:02 1035 30.56 864 25.51 -0.3 31.5 59 -7.4 18.6 0
17:03 1035 30.56 864 25.51 -0.4 31.4 59 -7.5 18.6 0
17:04 1035 30.56 864 25.51 -0.4 31.3 59 -7.4 18.6 0
17:05 1035 30.56 864 25.51 -0.5 31.2 59 -7.4 18.6 0
17:06 1035 30.56 864 25.51 -0.5 31.1 60 -7.3 18.9 0
17:07 1035 30.56 864 25.51 -0.6 30.9 60 -7.3 18.8 0
17:08 1035 30.56 864 25.51 -0.7 30.7 61 -7.3 18.8 0
17:09 1035 30.56 864 25.51 -0.9 30.3 62 -7.2 19 0
17:10 1035 30.56 864 25.51 -1.1 30 64 -7.1 19.2 0
17:11 1035 30.56 864 25.51 -1.3 29.7 64 -7.2 19.1 0
17:12 1035 30.56 864 25.51 -1.3 29.7 64 -7.1 19.1 0
17:13 1035 30.56 864 25.51 -1.3 29.7 65 -7.1 19.2 0
17:14 1035 30.56 864 25.51 -1.3 29.7 64 -7.2 19 0
17:15 1035 30.56 864 25.51 -1.3 29.7 64 -7.3 18.9 0
17:16 1035 30.56 864 25.51 -1.3 29.7 64 -7.3 18.9 0
17:17 1035 30.56 864 25.51 -1.2 29.8 63 -7.4 18.7 0
17:18 1035 30.56 864 25.51 -1.2 29.9 62 -7.5 18.5 0
17:19 1035 30.56 864 25.51 -1.2 29.8 62 -7.6 18.4 0
17:20 1035 30.56 864 25.51 -1.3 29.7 63 -7.5 18.5 0
17:21 1035 30.56 864 25.51 -1.3 29.7 63 -7.4 18.6 0
17:22 1035 30.56 864 25.51 -1.3 29.7 63 -7.4 18.6 0
17:23 1035 30.56 864 25.51 -1.2 29.8 63 -7.4 18.7 0
17:24 1035 30.56 864 25.51 -1.4 29.5 63 -7.6 18.4 0
17:25 1035 30.56 864 25.51 -1.7 28.9 64 -7.7 18.2 0
17:26 1035 30.56 864 25.51 -2.2 28.1 66 -7.7 18.2 0
17:27 1035 30.56 864 25.51 -2.3 27.9 67 -7.6 18.2 0
17:28 1035 30.56 864 25.51 -2.2 28 65 -7.9 17.7 0
17:29 1035 30.56 864 25.51 -2.3 27.9 64 -8.2 17.3 0
17:30 1035 30.56 864 25.51 -2.4 27.7 63 -8.6 16.6 0
17:31 1035 30.56 864 25.51 -2.7 27.1 64 -8.5 16.6 0
17:32 1035 30.56 864 25.51 -3.1 26.5 63 -9.2 15.4 0
17:33 1035 30.56 864 25.51 -3.6 25.5 65 -9.3 15.3 0
17:34 1035 30.56 864 25.51 -4.1 24.6 66 -9.5 14.9 0
17:35 1035 30.56 864 25.51 -4.6 23.8 68 -9.6 14.7 0
17:36 1035 30.56 864 25.51 -4.8 23.3 70 -9.5 14.9 0
17:37 1035 30.56 864 25.51 -4.9 23.2 70 -9.6 14.7 0
17:38 1035 30.56 864 25.51 -5.1 22.7 70 -9.9 14.2 0
17:39 1035 30.56 864 25.51 -5.5 22.1 71 -9.9 14.3 0
17:40 1035 30.56 864 25.51 -5.8 21.6 74 -9.7 14.6 0
17:41 1035 30.56 864 25.51 -5.7 21.7 74 -9.6 14.7 0
17:42 1035 30.56 864 25.51 -5.5 22.1 73 -9.6 14.7 0
17:43 1035 30.56 864 25.51 -5.2 22.6 69 -9.9 14.1 0
17:44 1035 30.56 864 25.51 -5.2 22.6 69 -10 13.9 0
17:45 1035 30.56 864 25.51 -5.3 22.4 68 -10.3 13.5 0
17:46 1035 30.56 864 25.51 -5.5 22 70 -10.3 13.5 0
17:47 1035 30.56 864 25.51 -5.7 21.8 70 -10.3 13.5 0
17:48 1035 30.56 864 25.51 -5.9 21.4 71 -10.4 13.3 0
17:49 1035 30.56 864 25.51 -6.1 21 72 -10.4 13.4 0
17:50 1035 30.56 864 25.51 -6.2 20.8 73 -10.4 13.4 0
17:51 1035 30.56 864 25.51 -6.4 20.6 73 -10.4 13.3 0
17:52 1035 30.56 864 25.51 -6.4 20.5 74 -10.4 13.3 0
17:53 1035 30.56 864 25.51 -6.5 20.3 73 -10.5 13.1 0
17:54 1035 30.56 864 25.51 -6.4 20.4 74 -10.3 13.4 0
17:55 1035 30.56 864 25.51 -6.3 20.7 72 -10.5 13 0
17:56 1035 30.56 864 25.51 -6.4 20.5 72 -10.5 13 0
17:57 1035 30.56 864 25.51 -6.6 20.2 73 -10.6 12.9 0
17:58 1035 30.56 864 25.51 -6.8 19.8 74 -10.6 12.9 0
17:59 1035 30.56 864 25.51 -7.1 19.3 75 -10.8 12.6 0
18:00 1035 30.56 864 25.51 -7.2 19 78 -10.4 13.2 0
18:01 1035 30.56 864 25.51 -7.3 19 78 -10.5 13 0
18:02 1035 30.56 864 25.51 -7.3 18.9 80 -10.2 13.6 0
18:03 1035 30.56 864 25.51 -7.1 19.3 79 -10.1 13.9 0
18:04 1035 30.56 864 25.51 -6.8 19.8 78 -10 14.1 0
18:05 1035 30.56 864 25.51 -6.4 20.4 78 -9.7 14.5 0
18:06 1035 30.56 864 25.51 -6.1 21 76 -9.8 14.4 0
18:07 1035 30.56 864 25.51 -6 21.2 74 -9.9 14.2 0
18:08 1035 30.56 864 25.51 -5.9 21.4 73 -9.9 14.2 0
18:09 1035 30.56 864 25.51 -5.9 21.4 73 -10.1 13.9 0
18:10 1035 30.56 864 25.51 -6.1 21 73 -10.2 13.6 0
18:11 1035 30.56 864 25.51 -6.5 20.3 74 -10.4 13.3 0
18:12 1035 30.56 864 25.51 -6.7 19.9 74 -10.7 12.8 0
18:13 1035 30.56 864 25.51 -6.9 19.5 76 -10.5 13.1 0
18:14 1035 30.56 864 25.51 -7.1 19.2 74 -11 12.1 0
18:15 1035 30.56 864 25.51 -7.4 18.7 75 -11 12.1 0
18:16 1035 30.56 864 25.51 -7.6 18.4 75 -11.2 11.8 0
18:17 1035 30.56 864 25.51 -7.8 18 76 -11.3 11.7 0
18:18 1035 30.56 864 25.51 -7.9 17.7 79 -11 12.2 0
18:19 1035 30.56 864 25.51 -7.9 17.9 77 -11.1 11.9 0
18:20 1035 30.56 864 25.51 -7.8 18 78 -11 12.2 0
18:21 1035 30.56 864 25.51 -7.7 18.1 77 -11.2 11.9 0
18:22 1035 30.56 864 25.51 -7.8 18 75 -11.5 11.2 0
18:23 1035 30.56 864 25.51 -8 17.6 76 -11.5 11.3 0
18:24 1035 30.56 864 25.51 -8.1 17.4 78 -11.3 11.7 0
18:25 1035 30.56 864 25.51 -7.6 18.4 77 -11 12.3 0
18:26 1034 30.53 864 25.51 -7 19.3 76 -10.5 13.1 0
18:27 1034 30.53 864 25.51 -6.7 20 70 -11.3 11.6 0
18:28 1034 30.53 864 25.51 -7.1 19.2 71 -11.5 11.2 0
18:29 1034 30.53 864 25.51 -7.5 18.5 75 -11.2 11.9 0
18:30 1035 30.56 864 25.51 -7.4 18.8 76 -11 12.3 0
18:31 1035 30.56 864 25.51 -7.1 19.3 75 -10.8 12.6 0
18:32 1035 30.56 864 25.51 -6.8 19.8 70 -11.4 11.5 0
18:33 1035 30.56 864 25.51 -7.1 19.3 70 -11.6 11 0
18:34 1035 30.56 864 25.51 -7.5 18.6 73 -11.5 11.3 0
18:35 1035 30.56 864 25.51 -7.7 18.2 74 -11.5 11.4 0
18:36 1035 30.56 864 25.51 -7.6 18.4 75 -11.3 11.6 0
18:37 1035 30.56 864 25.51 -7.4 18.7 74 -11.3 11.6 0
18:38 1035 30.56 864 25.51 -7.3 19 73 -11.4 11.5 0
18:39 1035 30.56 864 25.51 -7.3 18.9 73 -11.3 11.7 0
18:40 1035 30.56 864 25.51 -7.2 19.1 73 -11.2 11.9 0
18:41 1035 30.56 864 25.51 -7 19.4 73 -11.1 11.9 0
18:42 1035 30.56 864 25.51 -6.9 19.6 72 -11.2 11.9 0
18:43 1035 30.56 864 25.51 -6.8 19.7 72 -11.1 12 0
18:44 1035 30.56 864 25.51 -6.8 19.7 73 -11 12.2 0
18:45 1035 30.56 864 25.51 -6.7 19.9 72 -11 12.2 0
18:46 1035 30.56 864 25.51 -6.8 19.8 72 -11 12.1 0
18:47 1035 30.56 864 25.51 -7 19.4 71 -11.4 11.4 0
18:48 1035 30.56 864 25.51 -7.3 18.9 72 -11.4 11.4 0
18:49 1035 30.56 864 25.51 -7.5 18.5 76 -11.1 12 0
18:50 1035 30.56 864 25.51 -7.1 19.2 72 -11.3 11.6 0
18:51 1035 30.56 864 25.51 -6.9 19.6 71 -11.3 11.7 0
18:52 1035 30.56 864 25.51 -7 19.3 72 -11.3 11.6 0
18:53 1035 30.56 864 25.51 -7.2 19 72 -11.5 11.3 0
18:54 1035 30.56 864 25.51 -7.5 18.6 73 -11.4 11.4 0
18:55 1034 30.53 864 25.51 -7.6 18.3 73 -11.6 11.1 0
18:56 1034 30.53 864 25.51 -7.8 18 72 -12 10.5 0
18:57 1034 30.53 864 25.51 -8.1 17.4 76 -11.6 11.1 0
18:58 1034 30.53 864 25.51 -8.2 17.3 77 -11.5 11.2 0
18:59 1034 30.53 864 25.51 -7.7 18.2 76 -11.2 11.8 0
19:00 1034 30.53 864 25.51 -7.1 19.2 70 -11.6 11.1 0
19:01 1034 30.53 864 25.51 -7.3 19 71 -11.7 10.9 0
19:02 1034 30.53 864 25.51 -7.5 18.6 75 -11.2 11.9 0
19:03 1034 30.53 864 25.51 -7.2 19.1 71 -11.5 11.3 0
19:04 1034 30.53 864 25.51 -7.1 19.2 72 -11.4 11.5 0
19:05 1034 30.53 864 25.51 -7.3 18.9 70 -11.9 10.6 0
19:06 1034 30.53 864 25.51 -7.7 18.1 72 -11.9 10.5 0
19:07 1034 30.53 864 25.51 -8.1 17.5 76 -11.6 11.1 0
19:08 1034 30.53 864 25.51 -8.1 17.5 75 -11.8 10.7 0
19:09 1034 30.53 864 25.51 -8.1 17.4 75 -11.7 10.9 0
19:10 1034 30.53 864 25.51 -8.1 17.4 76 -11.7 11 0
19:11 1034 30.53 864 25.51 -8.1 17.4 76 -11.7 11 0
19:12 1034 30.53 864 25.51 -8.1 17.4 77 -11.5 11.2 0
19:13 1034 30.53 864 25.51 -8 17.7 76 -11.5 11.3 0
19:14 1034 30.53 864 25.51 -7.8 17.9 76 -11.4 11.4 0
19:15 1034 30.53 864 25.51 -7.7 18.2 74 -11.5 11.4 0
19:16 1034 30.53 864 25.51 -7.6 18.3 75 -11.4 11.5 0
19:17 1034 30.53 864 25.51 -7.6 18.4 75 -11.2 11.8 0
19:18 1034 30.53 864 25.51 -7.3 18.9 74 -11.2 11.8 0
19:19 1034 30.53 864 25.51 -7.2 19.1 73 -11.1 11.9 0
19:20 1034 30.53 864 25.51 -7 19.4 72 -11.2 11.9 0
19:21 1034 30.53 864 25.51 -6.8 19.7 72 -11 12.1 0
19:22 1034 30.53 864 25.51 -6.6 20.1 72 -10.9 12.4 0
19:23 1034 30.53 864 25.51 -6.5 20.3 69 -11.2 11.8 0
19:24 1034 30.53 864 25.51 -6.4 20.5 70 -11.1 12.1 0
19:25 1034 30.53 864 25.51 -6.2 20.9 70 -10.7 12.7 0
19:26 1034 30.53 864 25.51 -6 21.3 69 -10.7 12.7 0
19:27 1034 30.53 864 25.51 -5.7 21.7 70 -10.4 13.3 0
19:28 1034 30.53 864 25.51 -5.4 22.3 70 -10 14 0
19:29 1034 30.53 864 25.51 -5.1 22.7 65 -10.7 12.7 0
19:30 1034 30.53 864 25.51 -5.3 22.5 68 -10.2 13.6 0
19:31 1034 30.53 864 25.51 -5.2 22.7 71 -9.7 14.5 0
19:32 1034 30.53 864 25.51 -4.8 23.4 67 -10 14 0
19:33 1034 30.53 864 25.51 -4.9 23.1 63 -11 12.2 0
19:34 1034 30.53 864 25.51 -5.4 22.2 64 -11.1 12 0
19:35 1034 30.53 864 25.51 -5.9 21.4 67 -11.1 12 0
19:36 1034 30.53 864 25.51 -6.1 21 70 -10.8 12.6 0
19:37 1034 30.53 864 25.51 -6.4 20.5 66 -11.7 10.9 0
19:38 1034 30.53 864 25.51 -7 19.4 67 -12.1 10.2 0
19:39 1034 30.53 864 25.51 -7.6 18.3 71 -12.1 10.2 0
19:40 1034 30.53 864 25.51 -8 17.7 73 -11.9 10.6 0
19:41 1034 30.53 864 25.51 -8.1 17.3 72 -12.3 9.8 0
19:42 1034 30.53 864 25.51 -8.4 16.9 75 -12.1 10.2 0
19:43 1034 30.53 864 25.51 -8.5 16.7 78 -11.7 10.9 0
19:44 1034 30.53 864 25.51 -8.4 16.8 77 -11.8 10.7 0
19:45 1034 30.53 864 25.51 -8.4 16.8 78 -11.6 11.2 0
19:46 1034 30.53 864 25.51 -8.4 16.8 77 -11.8 10.7 0
19:47 1034 30.53 864 25.51 -8.6 16.5 76 -12.1 10.3 0
19:48 1034 30.53 864 25.51 -8.8 16.2 80 -11.7 10.9 0
19:49 1034 30.53 864 25.51 -8.7 16.3 80 -11.6 11.2 0
19:50 1034 30.53 864 25.51 -8.7 16.3 79 -11.8 10.8 0
19:51 1034 30.53 864 25.51 -8.6 16.6 81 -11.2 11.8 0
19:52 1034 30.53 864 25.51 -8.5 16.8 83 -10.8 12.6 0
19:53 1034 30.53 864 25.51 -8.2 17.2 82 -10.8 12.5 0
19:54 1034 30.53 864 25.51 -8.1 17.4 80 -11 12.3 0
19:55 1034 30.53 864 25.51 -7.8 17.9 80 -10.8 12.6 0
19:56 1034 30.53 864 25.51 -7.6 18.4 78 -10.7 12.7 0
19:57 1034 30.53 864 25.51 -7.3 18.9 84 -9.6 14.7 0
19:58 1034 30.53 864 25.51 -6.9 19.7 79 -9.9 14.2 0
19:59 1034 30.53 864 25.51 -6.8 19.7 71 -11.2 11.8 0
20:00 1034 30.53 864 25.51 -7.5 18.5 70 -12 10.3 0
20:01 1034 30.53 864 25.51 -8.2 17.2 74 -12 10.4 0
20:02 1034 30.53 864 25.51 -8.7 16.4 79 -11.8 10.8 0
20:03 1034 30.53 864 25.51 -9 15.8 79 -11.9 10.5 0
20:04 1034 30.53 864 25.51 -9.2 15.4 80 -12.1 10.3 0
20:05 1034 30.53 864 25.51 -9.4 15.1 81 -12.1 10.2 0
20:06 1034 30.53 864 25.51 -9.6 14.7 82 -12.1 10.2 0
20:07 1034 30.53 864 25.51 -9.6 14.7 82 -12.1 10.2 0
20:08 1034 30.53 864 25.51 -9.6 14.6 82 -12.2 10.1 0
20:09 1034 30.53 864 25.51 -9.7 14.6 83 -12.1 10.3 0
20:10 1034 30.53 864 25.51 -9.5 14.8 83 -11.9 10.6 0
20:11 1034 30.53 864 25.51 -9.3 15.2 83 -11.7 11 0
20:12 1034 30.53 864 25.51 -9.1 15.7 84 -11.3 11.6 0
20:13 1034 30.53 864 25.51 -8.5 16.7 81 -11.2 11.8 0
20:14 1034 30.53 864 25.51 -8.4 16.8 74 -12.2 10 0
20:15 1034 30.53 864 25.51 -8.9 16 78 -12.1 10.2 0
20:16 1034 30.53 864 25.51 -9 15.8 82 -11.6 11.1 0
20:17 1034 30.53 864 25.51 -8.9 16 82 -11.4 11.5 0
20:18 1034 30.53 864 25.51 -8.7 16.4 82 -11.3 11.7 0
20:19 1034 30.53 864 25.51 -8.5 16.7 80 -11.4 11.4 0
20:20 1034 30.53 864 25.51 -8.5 16.8 80 -11.3 11.7 0
20:21 1034 30.53 864 25.51 -8.4 16.8 77 -11.8 10.7 0
20:22 1034 30.53 864 25.51 -8.8 16.3 76 -12.3 9.9 0
20:23 1034 30.53 864 25.51 -9.1 15.5 77 -12.4 9.6 0
20:24 1034 30.53 864 25.51 -9.5 14.8 81 -12.2 10 0
20:25 1034 30.53 864 25.51 -9.7 14.6 81 -12.4 9.8 0
20:26 1034 30.53 864 25.51 -9.8 14.3 81 -12.5 9.5 0
20:27 1034 30.53 863 25.48 -9.8 14.3 84 -12.1 10.2 0
20:28 1034 30.53 863 25.48 -9.6 14.7 85 -11.7 10.9 0
20:29 1034 30.53 863 25.48 -9.3 15.3 83 -11.7 11 0
20:30 1034 30.53 863 25.48 -9.2 15.4 82 -11.7 10.9 0
20:31 1034 30.53 863 25.48 -9.1 15.6 84 -11.4 11.4 0
20:32 1034 30.53 863 25.48 -9.2 15.5 80 -12 10.4 0
20:33 1034 30.53 863 25.48 -9.3 15.2 82 -11.9 10.6 0
20:34 1034 30.53 863 25.48 -9.3 15.3 84 -11.6 11.2 0
20:35 1034 30.53 863 25.48 -9.2 15.4 82 -11.7 10.9 0
20:36 1034 30.53 863 25.48 -9.2 15.4 83 -11.7 11 0
20:37 1034 30.53 863 25.48 -9.2 15.5 82 -11.7 11 0
20:38 1034 30.53 863 25.48 -9.3 15.3 79 -12.3 9.9 0
20:39 1034 30.53 863 25.48 -9.6 14.8 81 -12.3 9.8 0
20:40 1034 30.53 863 25.48 -9.7 14.6 83 -12 10.4 0
20:41 1034 30.53 863 25.48 -9.6 14.8 81 -12.2 10 0
20:42 1034 30.53 863 25.48 -9.4 15 80 -12.2 10 0
20:43 1034 30.53 863 25.48 -9.3 15.4 80 -12.2 10.1 0
20:44 1034 30.53 863 25.48 -9.2 15.4 78 -12.4 9.8 0
20:45 1034 30.53 863 25.48 -9.2 15.4 79 -12.2 10 0
20:46 1034 30.53 863 25.48 -9.2 15.4 79 -12.2 10.1 0
20:47 1034 30.53 863 25.48 -9.1 15.6 80 -12 10.5 0
20:48 1034 30.53 863 25.48 -9.1 15.6 78 -12.2 10.1 0
20:49 1034 30.53 863 25.48 -9.2 15.5 78 -12.3 9.8 0
20:50 1034 30.53 863 25.48 -9.3 15.3 77 -12.6 9.4 0
20:51 1034 30.53 863 25.48 -9.6 14.8 78 -12.6 9.2 0
20:52 1034 30.53 863 25.48 -9.7 14.5 79 -12.7 9.1 0
20:53 1034 30.53 863 25.48 -9.9 14.2 80 -12.7 9.2 0
20:54 1034 30.53 863 25.48 -9.9 14.2 81 -12.6 9.3 0
20:55 1034 30.53 863 25.48 -9.9 14.3 80 -12.7 9.2 0
20:56 1034 30.53 863 25.48 -9.8 14.3 79 -12.8 8.9 0
20:57 1034 30.53 863 25.48 -9.9 14.2 79 -12.9 8.8 0
20:58 1034 30.53 863 25.48 -9.7 14.5 78 -12.8 8.9 0
20:59 1034 30.53 863 25.48 -9.5 14.9 76 -13 8.7 0
21:00 1034 30.53 863 25.48 -9.5 14.9 75 -13.2 8.3 0
21:01 1034 30.53 863 25.48 -9.6 14.7 74 -13.4 8 0
21:02 1034 30.53 863 25.48 -9.9 14.2 75 -13.5 7.8 0
21:03 1034 30.53 863 25.48 -10.1 13.7 76 -13.6 7.5 0
21:04 1034 30.53 863 25.48 -10.4 13.4 78 -13.5 7.7 0
21:05 1034 30.53 863 25.48 -10.5 13.2 80 -13.2 8.2 0
21:06 1034 30.53 863 25.48 -10.4 13.2 81 -13.1 8.4 0
21:07 1034 30.53 863 25.48 -10.4 13.4 82 -12.9 8.8 0
21:08 1034 30.53 863 25.48 -10.3 13.4 82 -12.9 8.8 0
21:09 1034 30.53 863 25.48 -10.4 13.3 83 -12.8 9 0
21:10 1034 30.53 863 25.48 -10.3 13.4 83 -12.6 9.3 0
21:11 1034 30.53 863 25.48 -10.3 13.5 84 -12.5 9.4 0
21:12 1034 30.53 863 25.48 -10.2 13.6 83 -12.6 9.3 0
21:13 1034 30.53 863 25.48 -10.2 13.7 82 -12.6 9.2 0
21:14 1034 30.53 863 25.48 -10.1 13.7 83 -12.6 9.4 0
21:15 1034 30.53 863 25.48 -10.1 13.9 84 -12.3 9.9 0
21:16 1034 30.53 863 25.48 -9.9 14.1 83 -12.3 9.8 0
21:17 1034 30.53 863 25.48 -9.8 14.3 82 -12.4 9.7 0
21:18 1034 30.53 863 25.48 -9.8 14.3 81 -12.4 9.6 0
21:19 1034 30.53 863 25.48 -9.8 14.3 83 -12.2 10 0
21:20 1034 30.53 863 25.48 -9.7 14.5 82 -12.2 10 0
21:21 1034 30.53 863 25.48 -9.6 14.7 81 -12.3 9.9 0
21:22 1034 30.53 863 25.48 -9.5 14.8 80 -12.3 9.8 0
21:23 1034 30.53 863 25.48 -9.5 14.9 80 -12.3 9.9 0
21:24 1034 30.53 863 25.48 -9.4 15.1 79 -12.4 9.6 0
21:25 1034 30.53 863 25.48 -9.5 15 79 -12.5 9.5 0
21:26 1034 30.53 863 25.48 -9.5 14.9 79 -12.5 9.5 0
21:27 1034 30.53 863 25.48 -9.4 15 80 -12.3 9.9 0
21:28 1034 30.53 863 25.48 -9.3 15.3 79 -12.3 9.8 0
21:29 1034 30.53 863 25.48 -9.1 15.6 78 -12.2 10 0
21:30 1034 30.53 863 25.48 -9 15.8 77 -12.4 9.7 0
21:31 1034 30.53 863 25.48 -9 15.9 78 -12.2 10.1 0
21:32 1034 30.53 863 25.48 -8.8 16.2 76 -12.2 10 0
21:33 1034 30.53 863 25.48 -8.8 16.2 74 -12.6 9.4 0
21:34 1034 30.53 863 25.48 -8.9 15.9 74 -12.7 9.2 0
21:35 1034 30.53 863 25.48 -9 15.7 74 -12.8 8.9 0
21:36 1034 30.53 863 25.48 -9.2 15.5 76 -12.7 9.1 0
21:37 1034 30.53 863 25.48 -9.1 15.6 77 -12.5 9.4 0
21:38 1034 30.53 863 25.48 -9 15.9 76 -12.5 9.4 0
21:39 1034 30.53 863 25.48 -8.9 16.1 75 -12.6 9.3 0
21:40 1034 30.53 863 25.48 -8.7 16.3 74 -12.5 9.5 0
21:41 1034 30.53 863 25.48 -8.6 16.6 73 -12.6 9.4 0
21:42 1034 30.53 863 25.48 -8.5 16.7 74 -12.4 9.8 0
21:43 1034 30.53 863 25.48 -8.2 17.2 73 -12.2 10.1 0
21:44 1034 30.53 863 25.48 -7.7 18.1 71 -12.2 10.1 0
21:45 1034 30.53 863 25.48 -7.4 18.7 70 -12 10.3 0
21:46 1034 30.53 863 25.48 -7.1 19.3 68 -12 10.4 0
21:47 1034 30.53 863 25.48 -7 19.4 66 -12.3 9.9 0
21:48 1034 30.53 863 25.48 -7.4 18.7 68 -12.4 9.8 0
21:49 1034 30.53 863 25.48 -7.7 18.1 68 -12.6 9.3 0
21:50 1034 30.53 863 25.48 -8 17.6 70 -12.6 9.3 0
21:51 1034 30.53 863 25.48 -8.2 17.3 71 -12.6 9.4 0
21:52 1034 30.53 863 25.48 -8.3 17.2 72 -12.5 9.5 0
21:53 1034 30.53 863 25.48 -8.3 17 72 -12.6 9.4 0
21:54 1034 30.53 863 25.48 -8.5 16.8 72 -12.7 9.1 0
21:55 1034 30.53 863 25.48 -8.5 16.6 72 -12.7 9.2 0
21:56 1034 30.53 863 25.48 -8.6 16.5 73 -12.7 9.2 0
21:57 1034 30.53 863 25.48 -8.7 16.4 73 -12.6 9.3 0
21:58 1034 30.53 863 25.48 -8.7 16.3 73 -12.7 9.1 0
21:59 1034 30.53 863 25.48 -8.9 16.1 74 -12.7 9.2 0
22:00 1034 30.53 863 25.48 -8.8 16.1 75 -12.6 9.4 0
22:01 1034 30.53 863 25.48 -8.7 16.3 74 -12.6 9.4 0
22:02 1034 30.53 863 25.48 -8.6 16.5 73 -12.6 9.4 0
22:03 1034 30.53 863 25.48 -8.5 16.6 72 -12.7 9.2 0
22:04 1034 30.53 863 25.48 -8.5 16.7 71 -12.8 9 0
22:05 1034 30.53 863 25.48 -8.7 16.4 73 -12.7 9.1 0
22:06 1034 30.53 863 25.48 -8.7 16.4 73 -12.7 9.1 0
22:07 1034 30.53 863 25.48 -8.6 16.6 72 -12.8 8.9 0
22:08 1034 30.53 863 25.48 -8.7 16.4 72 -12.8 8.9 0
22:09 1034 30.53 863 25.48 -8.7 16.3 72 -12.9 8.8 0
22:10 1034 30.53 863 25.48 -8.6 16.5 71 -12.9 8.8 0
22:11 1034 30.53 863 25.48 -8.4 16.8 71 -12.9 8.8 0
22:12 1034 30.53 863 25.48 -8.4 17 71 -12.8 8.9 0
22:13 1034 30.53 863 25.48 -8.2 17.2 70 -12.7 9.1 0
22:14 1034 30.53 863 25.48 -8.1 17.5 68 -13 8.6 0
22:15 1034 30.53 863 25.48 -8.1 17.4 68 -13 8.7 0
22:16 1034 30.53 863 25.48 -8.2 17.3 68 -13.1 8.5 0
22:17 1034 30.53 863 25.48 -8.1 17.3 68 -13 8.6 0
22:18 1034 30.53 863 25.48 -8 17.6 68 -12.9 8.8 0
22:19 1034 30.53 863 25.48 -7.8 18 69 -12.5 9.5 0
22:20 1034 30.53 863 25.48 -7.5 18.6 67 -12.5 9.5 0
22:21 1034 30.53 863 25.48 -7.3 18.9 67 -12.4 9.7 0
22:22 1034 30.53 863 25.48 -7.2 19 65 -12.6 9.2 0
22:23 1034 30.53 863 25.48 -7.3 18.8 65 -12.9 8.8 0
22:24 1034 30.53 863 25.48 -7.5 18.5 66 -12.9 8.8 0
22:25 1034 30.53 863 25.48 -7.7 18.1 65 -13.2 8.3 0
22:26 1034 30.53 863 25.48 -8.2 17.3 66 -13.4 7.9 0
22:27 1034 30.53 863 25.48 -8.5 16.7 68 -13.3 8 0
22:28 1034 30.53 863 25.48 -8.7 16.4 69 -13.4 7.9 0
22:29 1034 30.53 863 25.48 -8.7 16.3 70 -13.3 8 0
22:30 1034 30.53 863 25.48 -8.6 16.5 70 -13.2 8.2 0
22:31 1034 30.53 863 25.48 -8.4 17 68 -13.3 8.1 0
22:32 1034 30.53 863 25.48 -8.2 17.2 67 -13.3 8 0
22:33 1034 30.53 863 25.48 -8.2 17.2 67 -13.3 8 0
22:34 1034 30.53 863 25.48 -8.3 17.1 67 -13.3 8 0
22:35 1034 30.53 863 25.48 -8.3 17 67 -13.4 7.8 0
22:36 1034 30.53 863 25.48 -8.3 17 67 -13.4 7.9 0
22:37 1034 30.53 863 25.48 -8.3 17.1 66 -13.5 7.8 0
22:38 1034 30.53 863 25.48 -8.6 16.6 67 -13.6 7.5 0
22:39 1034 30.53 863 25.48 -9 15.8 69 -13.7 7.4 0
22:40 1034 30.53 863 25.48 -9.2 15.4 72 -13.3 8 0
22:41 1034 30.53 863 25.48 -9.1 15.6 70 -13.6 7.5 0
22:42 1034 30.53 863 25.48 -9.3 15.4 71 -13.5 7.7 0
22:43 1034 30.53 863 25.48 -9.3 15.3 72 -13.4 7.8 0
22:44 1034 30.53 863 25.48 -9 15.8 70 -13.5 7.8 0
22:45 1034 30.53 863 25.48 -8.7 16.3 68 -13.7 7.4 0
22:46 1034 30.53 863 25.48 -8.3 17 70 -12.9 8.8 0
22:47 1034 30.53 863 25.48 -7.5 18.6 64 -13.1 8.5 0
22:48 1034 30.53 863 25.48 -7.6 18.4 64 -13.3 8.1 0
22:49 1034 30.53 863 25.48 -8 17.7 65 -13.5 7.7 0
22:50 1034 30.53 863 25.48 -8.4 17 66 -13.7 7.4 0
22:51 1034 30.53 863 25.48 -8.8 16.2 67 -13.9 7 0
22:52 1034 30.53 863 25.48 -9.2 15.4 69 -13.8 7.1 0
22:53 1034 30.53 863 25.48 -9.5 14.9 71 -13.9 7 0
22:54 1034 30.53 863 25.48 -9.7 14.6 72 -13.7 7.3 0
22:55 1034 30.53 863 25.48 -9.7 14.6 72 -13.8 7.2 0
22:56 1034 30.53 863 25.48 -9.6 14.7 73 -13.5 7.6 0
22:57 1034 30.53 863 25.48 -9.5 14.9 73 -13.4 7.8 0
22:58 1034 30.53 863 25.48 -9.3 15.2 73 -13.4 7.9 0
22:59 1034 30.53 863 25.48 -9.2 15.4 73 -13.3 8.1 0
23:00 1034 30.53 863 25.48 -9 15.8 72 -13.1 8.4 0
23:01 1034 30.53 863 25.48 -8.7 16.4 71 -13.1 8.4 0
23:02 1034 30.53 863 25.48 -8.5 16.8 70 -13 8.5 0
23:03 1034 30.53 863 25.48 -8.2 17.2 70 -12.8 9 0
23:04 1034 30.53 863 25.48 -7.8 17.9 75 -11.4 11.4 0
23:05 1034 30.53 863 25.48 -6.6 20.2 67 -11.7 11 0
23:06 1034 30.53 863 25.48 -6 21.2 61 -12.3 9.9 0
23:07 1034 30.53 863 25.48 -6.4 20.5 61 -12.8 9 0
23:08 1034 30.53 863 25.48 -6.8 19.7 72 -11 12.1 0
23:09 1034 30.53 863 25.48 -6 21.2 61 -12.4 9.7 0
23:10 1034 30.53 863 25.48 -6.4 20.6 57 -13.5 7.7 0
23:11 1034 30.53 863 25.48 -7.5 18.5 63 -13.4 7.9 0
23:12 1034 30.53 863 25.48 -8.5 16.7 66 -13.8 7.2 0
23:13 1034 30.53 863 25.48 -9.2 15.4 70 -13.8 7.2 0
23:14 1034 30.53 863 25.48 -9.6 14.7 71 -14 6.8 0
23:15 1034 30.53 863 25.48 -10 13.9 71 -14.4 6 0
23:16 1034 30.53 863 25.48 -10.2 13.6 77 -13.5 7.7 0
23:17 1034 30.53 863 25.48 -9.9 14.1 77 -13.2 8.3 0
23:18 1034 30.53 863 25.48 -9.6 14.7 75 -13.3 8.1 0
23:19 1034 30.53 863 25.48 -9.5 14.8 75 -13.2 8.2 0
23:20 1034 30.53 863 25.48 -9.5 15 75 -13.2 8.3 0
23:21 1034 30.53 863 25.48 -9.4 15.1 74 -13.2 8.3 0
23:22 1034 30.53 863 25.48 -9.4 15.1 74 -13.2 8.2 0
23:23 1034 30.53 863 25.48 -9.6 14.8 74 -13.3 8 0
23:24 1034 30.53 863 25.48 -9.7 14.6 76 -13.2 8.3 0
23:25 1034 30.53 863 25.48 -9.7 14.5 74 -13.5 7.8 0
23:26 1034 30.53 863 25.48 -9.9 14.3 76 -13.4 7.9 0
23:27 1034 30.53 863 25.48 -9.9 14.1 76 -13.3 8 0
23:28 1034 30.53 863 25.48 -9.9 14.2 77 -13.2 8.3 0
23:29 1034 30.53 863 25.48 -9.6 14.8 75 -13.2 8.2 0
23:30 1034 30.53 863 25.48 -9.2 15.5 73 -13.1 8.4 0
23:31 1034 30.53 863 25.48 -8.9 16 70 -13.4 7.8 0
23:32 1034 30.53 863 25.48 -9.1 15.7 69 -13.7 7.3 0
23:33 1034 30.53 863 25.48 -9.5 15 72 -13.6 7.5 0
23:34 1034 30.53 863 25.48 -9.6 14.7 75 -13.4 8 0
23:35 1034 30.53 863 25.48 -9.5 14.9 74 -13.4 8 0
23:36 1034 30.53 863 25.48 -9.6 14.7 73 -13.7 7.4 0
23:37 1034 30.53 863 25.48 -10.1 13.9 74 -13.9 7 0
23:38 1034 30.53 863 25.48 -10.5 13.2 77 -13.8 7.1 0
23:39 1034 30.53 863 25.48 -10.6 12.9 77 -13.9 6.9 0
23:40 1034 30.53 863 25.48 -10.6 12.9 79 -13.5 7.6 0
23:41 1034 30.53 863 25.48 -10.3 13.4 78 -13.5 7.7 0
23:42 1034 30.53 863 25.48 -10.2 13.6 76 -13.8 7.2 0
23:43 1034 30.53 863 25.48 -10.3 13.4 75 -13.9 6.9 0
23:44 1034 30.53 863 25.48 -10.5 13.2 78 -13.6 7.6 0
23:45 1034 30.53 863 25.48 -10.2 13.6 78 -13.3 8.1 0
23:46 1034 30.53 863 25.48 -9.8 14.4 76 -13.2 8.2 0
23:47 1034 30.53 863 25.48 -9.6 14.8 75 -13.2 8.2 0
23:48 1034 30.53 863 25.48 -9.6 14.8 74 -13.5 7.8 0
23:49 1034 30.53 863 25.48 -9.7 14.5 74 -13.6 7.6 0
23:50 1034 30.53 863 25.48 -9.8 14.4 74 -13.6 7.5 0
23:51 1034 30.53 863 25.48 -9.8 14.4 73 -13.7 7.3 0
23:52 1034 30.53 863 25.48 -9.8 14.4 72 -14 6.9 0
23:53 1034 30.53 863 25.48 -10 14 73 -13.9 7 0
23:54 1034 30.53 863 25.48 -10 14.1 73 -13.8 7.1 0
23:55 1034 30.53 863 25.48 -9.8 14.3 73 -13.9 7 0
23:56 1034 30.53 863 25.48 -9.7 14.5 72 -13.9 7 0
23:57 1034 30.53 863 25.48 -9.7 14.6 71 -14 6.7 0
23:58 1034 30.53 863 25.48 -9.5 14.9 72 -13.7 7.3 0
23:59 1034 30.53 863 25.48 -9 15.8 69 -13.7 7.4 0
24:00 1034 30.53 863 25.48 -8.7 16.4 67 -13.6 7.5 0